Wetterdaten: Montag, 19.08.2013
Datum Zeit Temp. Aussen +5cm Feuchte Auss Luftdruck Regen Sonnenschein Regendauer UV Solar Windben
19.08.2013 00:00 17,6 C 15,6 C 95 % 1012,5 hPa 0,0 l/m 0 min 0 min 0,0 UV-I 0 W/m 0,0 km/h (0 Bft)
19.08.2013 00:02 17,5 C 15,6 C 96 % 1012,5 hPa 0,0 l/m 0 min 0 min 0,0 UV-I 0 W/m 0,0 km/h (0 Bft)
19.08.2013 00:06 17,5 C 15,6 C 96 % 1012,5 hPa 0,0 l/m 0 min 0 min 0,0 UV-I 0 W/m 0,0 km/h (0 Bft)
19.08.2013 00:08 17,5 C 15,6 C 96 % 1012,5 hPa 0,0 l/m 0 min 0 min 0,0 UV-I 0 W/m 0,0 km/h (0 Bft)
19.08.2013 00:10 17,5 C 15,6 C 96 % 1012,5 hPa 0,0 l/m 0 min 0 min 0,0 UV-I 0 W/m 0,0 km/h (0 Bft)
19.08.2013 00:12 17,6 C 15,6 C 96 % 1012,6 hPa 0,0 l/m 0 min 0 min 0,0 UV-I 0 W/m 0,0 km/h (0 Bft)
19.08.2013 00:14 17,6 C 16,1 C 96 % 1012,6 hPa 0,0 l/m 0 min 0 min 0,0 UV-I 0 W/m 0,0 km/h (0 Bft)
19.08.2013 00:16 17,6 C 16,1 C 96 % 1012,6 hPa 0,0 l/m 0 min 0 min 0,0 UV-I 0 W/m 0,0 km/h (0 Bft)
19.08.2013 00:18 17,6 C 16,1 C 96 % 1012,6 hPa 0,0 l/m 0 min 0 min 0,0 UV-I 0 W/m 0,0 km/h (0 Bft)
19.08.2013 00:20 17,6 C 16,1 C 96 % 1012,7 hPa 0,0 l/m 0 min 0 min 0,0 UV-I 0 W/m 0,0 km/h (0 Bft)
19.08.2013 00:22 17,6 C 16,1 C 96 % 1012,6 hPa 0,0 l/m 0 min 0 min 0,0 UV-I 0 W/m 0,0 km/h (0 Bft)
19.08.2013 00:24 17,6 C 16,1 C 96 % 1012,6 hPa 0,0 l/m 0 min 0 min 0,0 UV-I 0 W/m 0,0 km/h (0 Bft)
19.08.2013 00:26 17,6 C 16,1 C 96 % 1012,5 hPa 0,0 l/m 0 min 0 min 0,0 UV-I 0 W/m 0,0 km/h (0 Bft)
19.08.2013 00:28 17,6 C 16,1 C 96 % 1012,5 hPa 0,0 l/m 0 min 0 min 0,0 UV-I 0 W/m 0,0 km/h (0 Bft)
19.08.2013 00:30 17,6 C 16,1 C 96 % 1012,4 hPa 0,0 l/m 0 min 0 min 0,0 UV-I 0 W/m 0,0 km/h (0 Bft)
19.08.2013 00:32 17,6 C 16,1 C 96 % 1012,2 hPa 0,0 l/m 0 min 0 min 0,0 UV-I 0 W/m 0,0 km/h (0 Bft)
19.08.2013 00:34 17,6 C 16,1 C 96 % 1012,2 hPa 0,0 l/m 0 min 0 min 0,0 UV-I 0 W/m 0,0 km/h (0 Bft)
19.08.2013 00:36 17,6 C 15,6 C 96 % 1012,2 hPa 0,0 l/m 0 min 0 min 0,0 UV-I 0 W/m 0,0 km/h (0 Bft)
19.08.2013 00:38 17,5 C 15,6 C 97 % 1012,3 hPa 0,0 l/m 0 min 0 min 0,0 UV-I 0 W/m 0,0 km/h (0 Bft)
19.08.2013 00:40 17,4 C 15,6 C 97 % 1012,3 hPa 0,0 l/m 0 min 0 min 0,0 UV-I 0 W/m 0,0 km/h (0 Bft)
19.08.2013 00:42 17,4 C 15,6 C 97 % 1012,3 hPa 0,0 l/m 0 min 0 min 0,0 UV-I 0 W/m 0,0 km/h (0 Bft)
19.08.2013 00:44 17,4 C 15,6 C 97 % 1012,3 hPa 0,0 l/m 0 min 0 min 0,0 UV-I 0 W/m 0,0 km/h (0 Bft)
19.08.2013 00:46 17,4 C 15,6 C 97 % 1012,3 hPa 0,0 l/m 0 min 0 min 0,0 UV-I 0 W/m 0,0 km/h (0 Bft)
19.08.2013 00:48 17,3 C 15,6 C 97 % 1012,3 hPa 0,0 l/m 0 min 0 min 0,0 UV-I 0 W/m 0,0 km/h (0 Bft)
19.08.2013 00:50 17,3 C 15,6 C 97 % 1012,3 hPa 0,0 l/m 0 min 0 min 0,0 UV-I 0 W/m 0,0 km/h (0 Bft)
19.08.2013 00:52 17,3 C 15,6 C 97 % 1012,3 hPa 0,0 l/m 0 min 0 min 0,0 UV-I 0 W/m 0,0 km/h (0 Bft)
19.08.2013 00:54 17,3 C 15,6 C 97 % 1012,4 hPa 0,0 l/m 0 min 0 min 0,0 UV-I 0 W/m 0,0 km/h (0 Bft)
19.08.2013 00:56 17,3 C 15,6 C 97 % 1012,5 hPa 0,0 l/m 0 min 0 min 0,0 UV-I 0 W/m 0,0 km/h (0 Bft)
19.08.2013 00:58 17,3 C 15,6 C 97 % 1012,4 hPa 0,0 l/m 0 min 0 min 0,0 UV-I 0 W/m 0,0 km/h (0 Bft)
19.08.2013 01:00 17,3 C 15,6 C 97 % 1012,5 hPa 0,0 l/m 0 min 0 min 0,0 UV-I 0 W/m 0,0 km/h (0 Bft)
19.08.2013 01:02 17,3 C 15,6 C 97 % 1012,4 hPa 0,0 l/m 0 min 0 min 0,0 UV-I 0 W/m 0,0 km/h (0 Bft)
19.08.2013 01:06 17,3 C 15,6 C 97 % 1012,4 hPa 0,0 l/m 0 min 0 min 0,0 UV-I 0 W/m 0,0 km/h (0 Bft)
19.08.2013 01:08 17,3 C 15,6 C 97 % 1012,4 hPa 0,0 l/m 0 min 0 min 0,0 UV-I 0 W/m 0,0 km/h (0 Bft)
19.08.2013 01:10 17,2 C 15,6 C 97 % 1012,4 hPa 0,0 l/m 0 min 0 min 0,0 UV-I 0 W/m 0,0 km/h (0 Bft)
19.08.2013 01:12 17,3 C 15,6 C 97 % 1012,4 hPa 0,0 l/m 0 min 0 min 0,0 UV-I 0 W/m 0,0 km/h (0 Bft)
19.08.2013 01:14 17,3 C 15,6 C 97 % 1012,4 hPa 0,0 l/m 0 min 0 min 0,0 UV-I 0 W/m 0,0 km/h (0 Bft)
19.08.2013 01:16 17,3 C 16,1 C 97 % 1012,4 hPa 0,0 l/m 0 min 0 min 0,0 UV-I 0 W/m 0,0 km/h (0 Bft)
19.08.2013 01:18 17,3 C 16,1 C 97 % 1012,5 hPa 0,0 l/m 0 min 0 min 0,0 UV-I 0 W/m 0,0 km/h (0 Bft)
19.08.2013 01:20 17,3 C 16,1 C 97 % 1012,5 hPa 0,0 l/m 0 min 0 min 0,0 UV-I 0 W/m 0,0 km/h (0 Bft)
19.08.2013 01:22 17,3 C 16,1 C 97 % 1012,6 hPa 0,0 l/m 0 min 0 min 0,0 UV-I 0 W/m 0,0 km/h (0 Bft)
19.08.2013 01:24 17,3 C 16,1 C 97 % 1012,5 hPa 0,0 l/m 0 min 0 min 0,0 UV-I 0 W/m 0,0 km/h (0 Bft)
19.08.2013 01:26 17,3 C 16,1 C 97 % 1012,6 hPa 0,0 l/m 0 min 0 min 0,0 UV-I 0 W/m 0,0 km/h (0 Bft)
19.08.2013 01:28 17,3 C 16,1 C 97 % 1012,6 hPa 0,0 l/m 0 min 0 min 0,0 UV-I 0 W/m 0,0 km/h (0 Bft)
19.08.2013 01:30 17,3 C 16,1 C 97 % 1012,6 hPa 0,0 l/m 0 min 0 min 0,0 UV-I 0 W/m 0,0 km/h (0 Bft)
19.08.2013 01:32 17,3 C 16,1 C 97 % 1012,5 hPa 0,0 l/m 0 min 0 min 0,0 UV-I 0 W/m 0,0 km/h (0 Bft)
19.08.2013 01:34 17,3 C 16,1 C 97 % 1012,5 hPa 0,0 l/m 0 min 0 min 0,0 UV-I 0 W/m 0,0 km/h (0 Bft)
19.08.2013 01:36 17,3 C 16,1 C 97 % 1012,5 hPa 0,0 l/m 0 min 2 min 0,0 UV-I 0 W/m 2,6 km/h (1 Bft)
19.08.2013 01:38 17,3 C 16,1 C 97 % 1012,5 hPa 0,0 l/m 0 min 2 min 0,0 UV-I 0 W/m 0,0 km/h (0 Bft)
19.08.2013 01:40 17,3 C 16,1 C 97 % 1012,5 hPa 0,0 l/m 0 min 0 min 0,0 UV-I 0 W/m 0,0 km/h (0 Bft)
19.08.2013 01:42 17,3 C 16,1 C 97 % 1012,5 hPa 0,0 l/m 0 min 0 min 0,0 UV-I 0 W/m 0,0 km/h (0 Bft)
19.08.2013 01:44 17,3 C 16,1 C 97 % 1012,5 hPa 0,0 l/m 0 min 0 min 0,0 UV-I 0 W/m 0,0 km/h (0 Bft)
19.08.2013 01:46 17,3 C 16,1 C 97 % 1012,5 hPa 0,0 l/m 0 min 0 min 0,0 UV-I 0 W/m 2,6 km/h (1 Bft)
19.08.2013 01:48 17,3 C 16,1 C 97 % 1012,4 hPa 0,0 l/m 0 min 0 min 0,0 UV-I 0 W/m 0,0 km/h (0 Bft)
19.08.2013 01:50 17,3 C 16,1 C 97 % 1012,5 hPa 0,0 l/m 0 min 2 min 0,0 UV-I 0 W/m 2,6 km/h (1 Bft)
19.08.2013 01:52 17,3 C 16,1 C 97 % 1012,5 hPa 0,0 l/m 0 min 2 min 0,0 UV-I 0 W/m 2,6 km/h (1 Bft)
19.08.2013 01:54 17,3 C 15,6 C 97 % 1012,5 hPa 0,2 l/m 0 min 2 min 0,0 UV-I 0 W/m 0,0 km/h (0 Bft)
19.08.2013 01:56 17,3 C 16,1 C 97 % 1012,5 hPa 0,0 l/m 0 min 2 min 0,0 UV-I 0 W/m 7,7 km/h (2 Bft)
19.08.2013 01:58 17,3 C 16,1 C 97 % 1012,5 hPa 0,0 l/m 0 min 2 min 0,0 UV-I 0 W/m 0,0 km/h (0 Bft)
19.08.2013 02:00 17,3 C 16,1 C 97 % 1012,5 hPa 0,0 l/m 0 min 2 min 0,0 UV-I 0 W/m 0,0 km/h (0 Bft)
19.08.2013 02:02 17,3 C 16,1 C 97 % 1012,5 hPa 0,2 l/m 0 min 2 min 0,0 UV-I 0 W/m 0,0 km/h (0 Bft)
19.08.2013 02:06 17,4 C 16,1 C 97 % 1012,6 hPa 0,0 l/m 0 min 2 min 0,0 UV-I 0 W/m 0,0 km/h (0 Bft)
19.08.2013 02:08 17,4 C 15,6 C 97 % 1012,6 hPa 0,0 l/m 0 min 2 min 0,0 UV-I 0 W/m 5,1 km/h (1 Bft)
19.08.2013 02:10 17,4 C 15,6 C 97 % 1012,6 hPa 0,0 l/m 0 min 2 min 0,0 UV-I 0 W/m 2,6 km/h (1 Bft)
19.08.2013 02:12 17,4 C 15,6 C 97 % 1012,6 hPa 0,0 l/m 0 min 2 min 0,0 UV-I 0 W/m 7,7 km/h (2 Bft)
19.08.2013 02:14 17,4 C 15,6 C 97 % 1012,5 hPa 0,0 l/m 0 min 2 min 0,0 UV-I 0 W/m 0,0 km/h (0 Bft)
19.08.2013 02:16 17,4 C 15,6 C 97 % 1012,4 hPa 0,0 l/m 0 min 2 min 0,0 UV-I 0 W/m 0,0 km/h (0 Bft)
19.08.2013 02:18 17,4 C 15,6 C 97 % 1012,5 hPa 0,0 l/m 0 min 2 min 0,0 UV-I 0 W/m 0,0 km/h (0 Bft)
19.08.2013 02:20 17,4 C 15,6 C 97 % 1012,5 hPa 0,0 l/m 0 min 2 min 0,0 UV-I 0 W/m 0,0 km/h (0 Bft)
19.08.2013 02:22 17,4 C 15,6 C 97 % 1012,5 hPa 0,2 l/m 0 min 2 min 0,0 UV-I 0 W/m 0,0 km/h (0 Bft)
19.08.2013 02:24 17,3 C 15,6 C 97 % 1012,6 hPa 0,0 l/m 0 min 2 min 0,0 UV-I 0 W/m 0,0 km/h (0 Bft)
19.08.2013 02:26 17,3 C 15,6 C 97 % 1012,5 hPa 0,0 l/m 0 min 2 min 0,0 UV-I 0 W/m 0,0 km/h (0 Bft)
19.08.2013 02:28 17,3 C 15,6 C 97 % 1012,5 hPa 0,0 l/m 0 min 2 min 0,0 UV-I 0 W/m 0,0 km/h (0 Bft)
19.08.2013 02:30 17,3 C 15,6 C 97 % 1012,5 hPa 0,0 l/m 0 min 2 min 0,0 UV-I 0 W/m 0,0 km/h (0 Bft)
19.08.2013 02:32 17,3 C 15,6 C 97 % 1012,4 hPa 0,0 l/m 0 min 2 min 0,0 UV-I 0 W/m 0,0 km/h (0 Bft)
19.08.2013 02:34 17,3 C 15,6 C 97 % 1012,4 hPa 0,2 l/m 0 min 2 min 0,0 UV-I 0 W/m 0,0 km/h (0 Bft)
19.08.2013 02:36 17,3 C 15,6 C 97 % 1012,4 hPa 0,0 l/m 0 min 2 min 0,0 UV-I 0 W/m 0,0 km/h (0 Bft)
19.08.2013 02:38 17,3 C 15,6 C 97 % 1012,4 hPa 0,0 l/m 0 min 2 min 0,0 UV-I 0 W/m 0,0 km/h (0 Bft)
19.08.2013 02:40 17,3 C 15,6 C 97 % 1012,4 hPa 0,0 l/m 0 min 2 min 0,0 UV-I 0 W/m 0,0 km/h (0 Bft)
19.08.2013 02:42 17,3 C 15,6 C 97 % 1012,5 hPa 0,0 l/m 0 min 2 min 0,0 UV-I 0 W/m 0,0 km/h (0 Bft)
19.08.2013 02:44 17,2 C 15,6 C 97 % 1012,5 hPa 0,0 l/m 0 min 2 min 0,0 UV-I 0 W/m 0,0 km/h (0 Bft)
19.08.2013 02:46 17,2 C 15,6 C 97 % 1012,4 hPa 0,0 l/m 0 min 2 min 0,0 UV-I 0 W/m 0,0 km/h (0 Bft)
19.08.2013 02:48 17,2 C 15,6 C 97 % 1012,4 hPa 0,0 l/m 0 min 2 min 0,0 UV-I 0 W/m 2,6 km/h (1 Bft)
19.08.2013 02:50 17,2 C 15,6 C 97 % 1012,4 hPa 0,0 l/m 0 min 2 min 0,0 UV-I 0 W/m 0,0 km/h (0 Bft)
19.08.2013 02:52 17,2 C 15,6 C 97 % 1012,3 hPa 0,0 l/m 0 min 0 min 0,0 UV-I 0 W/m 0,0 km/h (0 Bft)
19.08.2013 02:54 17,2 C 15,6 C 97 % 1012,3 hPa 0,0 l/m 0 min 0 min 0,0 UV-I 0 W/m 0,0 km/h (0 Bft)
19.08.2013 02:56 17,2 C 15,6 C 97 % 1012,3 hPa 0,0 l/m 0 min 0 min 0,0 UV-I 0 W/m 0,0 km/h (0 Bft)
19.08.2013 02:58 17,2 C 15,6 C 97 % 1012,3 hPa 0,0 l/m 0 min 0 min 0,0 UV-I 0 W/m 0,0 km/h (0 Bft)
19.08.2013 03:00 17,2 C 15,6 C 97 % 1012,2 hPa 0,0 l/m 0 min 0 min 0,0 UV-I 0 W/m 0,0 km/h (0 Bft)
19.08.2013 03:02 17,2 C 15,6 C 97 % 1012,2 hPa 0,0 l/m 0 min 0 min 0,0 UV-I 0 W/m 0,0 km/h (0 Bft)
19.08.2013 03:06 17,1 C 15,6 C 97 % 1012,1 hPa 0,0 l/m 0 min 0 min 0,0 UV-I 0 W/m 0,0 km/h (0 Bft)
19.08.2013 03:08 17,1 C 15,6 C 97 % 1012,0 hPa 0,0 l/m 0 min 0 min 0,0 UV-I 0 W/m 0,0 km/h (0 Bft)
19.08.2013 03:10 17,1 C 15,6 C 97 % 1011,9 hPa 0,0 l/m 0 min 0 min 0,0 UV-I 0 W/m 0,0 km/h (0 Bft)
19.08.2013 03:12 17,1 C 15,6 C 97 % 1011,8 hPa 0,0 l/m 0 min 0 min 0,0 UV-I 0 W/m 0,0 km/h (0 Bft)
19.08.2013 03:14 17,0 C 15,6 C 97 % 1011,8 hPa 0,0 l/m 0 min 0 min 0,0 UV-I 0 W/m 0,0 km/h (0 Bft)
19.08.2013 03:16 17,0 C 15,6 C 97 % 1011,7 hPa 0,0 l/m 0 min 0 min 0,0 UV-I 0 W/m 0,0 km/h (0 Bft)
19.08.2013 03:18 16,9 C 15,6 C 97 % 1011,7 hPa 0,0 l/m 0 min 0 min 0,0 UV-I 0 W/m 0,0 km/h (0 Bft)
19.08.2013 03:20 16,9 C 15,6 C 97 % 1011,7 hPa 0,0 l/m 0 min 0 min 0,0 UV-I 0 W/m 0,0 km/h (0 Bft)
19.08.2013 03:22 16,9 C 15,6 C 97 % 1011,8 hPa 0,0 l/m 0 min 0 min 0,0 UV-I 0 W/m 0,0 km/h (0 Bft)
19.08.2013 03:24 16,9 C 15,6 C 97 % 1011,8 hPa 0,0 l/m 0 min 0 min 0,0 UV-I 0 W/m 0,0 km/h (0 Bft)
19.08.2013 03:26 16,9 C 15,6 C 97 % 1012,0 hPa 0,0 l/m 0 min 0 min 0,0 UV-I 0 W/m 0,0 km/h (0 Bft)
19.08.2013 03:28 16,9 C 15,6 C 97 % 1012,1 hPa 0,0 l/m 0 min 0 min 0,0 UV-I 0 W/m 0,0 km/h (0 Bft)
19.08.2013 03:30 16,9 C 15,6 C 97 % 1012,1 hPa 0,0 l/m 0 min 0 min 0,0 UV-I 0 W/m 0,0 km/h (0 Bft)
19.08.2013 03:32 16,9 C 15,6 C 97 % 1012,2 hPa 0,0 l/m 0 min 0 min 0,0 UV-I 0 W/m 0,0 km/h (0 Bft)
19.08.2013 03:34 16,9 C 15,6 C 97 % 1012,2 hPa 0,0 l/m 0 min 0 min 0,0 UV-I 0 W/m 0,0 km/h (0 Bft)
19.08.2013 03:36 16,9 C 15,6 C 97 % 1012,2 hPa 0,0 l/m 0 min 0 min 0,0 UV-I 0 W/m 0,0 km/h (0 Bft)
19.08.2013 03:38 16,9 C 15,6 C 97 % 1012,2 hPa 0,0 l/m 0 min 0 min 0,0 UV-I 0 W/m 0,0 km/h (0 Bft)
19.08.2013 03:40 16,9 C 15,6 C 97 % 1012,3 hPa 0,0 l/m 0 min 0 min 0,0 UV-I 0 W/m 0,0 km/h (0 Bft)
19.08.2013 03:42 16,9 C 15,6 C 97 % 1012,4 hPa 0,0 l/m 0 min 0 min 0,0 UV-I 0 W/m 0,0 km/h (0 Bft)
19.08.2013 03:44 16,9 C 15,6 C 97 % 1012,4 hPa 0,0 l/m 0 min 0 min 0,0 UV-I 0 W/m 2,6 km/h (1 Bft)
19.08.2013 03:46 16,9 C 15,6 C 97 % 1012,6 hPa 0,0 l/m 0 min 0 min 0,0 UV-I 0 W/m 0,0 km/h (0 Bft)
19.08.2013 03:48 16,9 C 15,6 C 97 % 1012,6 hPa 0,0 l/m 0 min 0 min 0,0 UV-I 0 W/m 0,0 km/h (0 Bft)
19.08.2013 03:50 16,9 C 15,6 C 97 % 1012,5 hPa 0,0 l/m 0 min 0 min 0,0 UV-I 0 W/m 0,0 km/h (0 Bft)
19.08.2013 03:52 16,9 C 15,6 C 97 % 1012,5 hPa 0,0 l/m 0 min 0 min 0,0 UV-I 0 W/m 0,0 km/h (0 Bft)
19.08.2013 03:54 16,9 C 15,6 C 97 % 1012,5 hPa 0,0 l/m 0 min 0 min 0,0 UV-I 0 W/m 0,0 km/h (0 Bft)
19.08.2013 03:56 16,9 C 15,6 C 97 % 1012,5 hPa 0,0 l/m 0 min 0 min 0,0 UV-I 0 W/m 2,6 km/h (1 Bft)
19.08.2013 03:58 16,8 C 15,6 C 97 % 1012,6 hPa 0,0 l/m 0 min 0 min 0,0 UV-I 0 W/m 2,6 km/h (1 Bft)
19.08.2013 04:00 16,8 C 15,6 C 97 % 1012,5 hPa 0,0 l/m 0 min 0 min 0,0 UV-I 0 W/m 0,0 km/h (0 Bft)
19.08.2013 04:02 16,8 C 15,6 C 97 % 1012,5 hPa 0,0 l/m 0 min 0 min 0,0 UV-I 0 W/m 0,0 km/h (0 Bft)
19.08.2013 04:06 16,8 C 15,6 C 97 % 1012,4 hPa 0,0 l/m 0 min 0 min 0,0 UV-I 0 W/m 2,6 km/h (1 Bft)
19.08.2013 04:08 16,8 C 15,0 C 97 % 1012,4 hPa 0,0 l/m 0 min 0 min 0,0 UV-I 0 W/m 2,6 km/h (1 Bft)
19.08.2013 04:10 16,8 C 15,0 C 97 % 1012,4 hPa 0,0 l/m 0 min 0 min 0,0 UV-I 0 W/m 2,6 km/h (1 Bft)
19.08.2013 04:12 16,7 C 15,0 C 97 % 1012,4 hPa 0,0 l/m 0 min 0 min 0,0 UV-I 0 W/m 0,0 km/h (0 Bft)
19.08.2013 04:14 16,7 C 15,0 C 97 % 1012,4 hPa 0,0 l/m 0 min 2 min 0,0 UV-I 0 W/m 2,6 km/h (1 Bft)
19.08.2013 04:16 16,7 C 15,0 C 97 % 1012,5 hPa 0,0 l/m 0 min 2 min 0,0 UV-I 0 W/m 0,0 km/h (0 Bft)
19.08.2013 04:18 16,7 C 15,0 C 97 % 1012,5 hPa 0,0 l/m 0 min 2 min 0,0 UV-I 0 W/m 2,6 km/h (1 Bft)
19.08.2013 04:20 16,7 C 15,0 C 97 % 1012,4 hPa 0,0 l/m 0 min 2 min 0,0 UV-I 0 W/m 0,0 km/h (0 Bft)
19.08.2013 04:22 16,7 C 15,0 C 97 % 1012,4 hPa 0,0 l/m 0 min 2 min 0,0 UV-I 0 W/m 0,0 km/h (0 Bft)
19.08.2013 04:24 16,7 C 15,0 C 97 % 1012,4 hPa 0,2 l/m 0 min 2 min 0,0 UV-I 0 W/m 0,0 km/h (0 Bft)
19.08.2013 04:26 16,7 C 15,0 C 97 % 1012,4 hPa 0,0 l/m 0 min 2 min 0,0 UV-I 0 W/m 0,0 km/h (0 Bft)
19.08.2013 04:28 16,7 C 15,0 C 97 % 1012,4 hPa 0,0 l/m 0 min 2 min 0,0 UV-I 0 W/m 2,6 km/h (1 Bft)
19.08.2013 04:30 16,6 C 15,0 C 97 % 1012,4 hPa 0,0 l/m 0 min 2 min 0,0 UV-I 0 W/m 0,0 km/h (0 Bft)
19.08.2013 04:32 16,6 C 15,0 C 97 % 1012,4 hPa 0,0 l/m 0 min 2 min 0,0 UV-I 0 W/m 0,0 km/h (0 Bft)
19.08.2013 04:34 16,6 C 15,0 C 97 % 1012,4 hPa 0,0 l/m 0 min 2 min 0,0 UV-I 0 W/m 0,0 km/h (0 Bft)
19.08.2013 04:36 16,5 C 15,0 C 97 % 1012,4 hPa 0,0 l/m 0 min 0 min 0,0 UV-I 0 W/m 0,0 km/h (0 Bft)
19.08.2013 04:38 16,5 C 15,0 C 97 % 1012,4 hPa 0,0 l/m 0 min 0 min 0,0 UV-I 0 W/m 0,0 km/h (0 Bft)
19.08.2013 04:40 16,5 C 15,0 C 97 % 1012,3 hPa 0,0 l/m 0 min 0 min 0,0 UV-I 0 W/m 0,0 km/h (0 Bft)
19.08.2013 04:42 16,4 C 15,0 C 97 % 1012,3 hPa 0,0 l/m 0 min 0 min 0,0 UV-I 0 W/m 0,0 km/h (0 Bft)
19.08.2013 04:44 16,4 C 15,0 C 97 % 1012,3 hPa 0,0 l/m 0 min 0 min 0,0 UV-I 0 W/m 0,0 km/h (0 Bft)
19.08.2013 04:46 16,4 C 15,0 C 97 % 1012,3 hPa 0,0 l/m 0 min 2 min 0,0 UV-I 0 W/m 0,0 km/h (0 Bft)
19.08.2013 04:48 16,4 C 15,0 C 97 % 1012,4 hPa 0,0 l/m 0 min 2 min 0,0 UV-I 0 W/m 0,0 km/h (0 Bft)
19.08.2013 04:50 16,4 C 15,0 C 97 % 1012,5 hPa 0,0 l/m 0 min 0 min 0,0 UV-I 0 W/m 0,0 km/h (0 Bft)
19.08.2013 04:52 16,4 C 15,0 C 97 % 1012,5 hPa 0,0 l/m 0 min 0 min 0,0 UV-I 0 W/m 0,0 km/h (0 Bft)
19.08.2013 04:54 16,4 C 15,0 C 97 % 1012,5 hPa 0,0 l/m 0 min 0 min 0,0 UV-I 0 W/m 2,6 km/h (1 Bft)
19.08.2013 04:56 16,3 C 15,0 C 97 % 1012,4 hPa 0,0 l/m 0 min 0 min 0,0 UV-I 0 W/m 0,0 km/h (0 Bft)
19.08.2013 04:58 16,3 C 15,0 C 97 % 1012,4 hPa 0,0 l/m 0 min 0 min 0,0 UV-I 0 W/m 0,0 km/h (0 Bft)
19.08.2013 05:00 16,3 C 15,0 C 97 % 1012,1 hPa 0,0 l/m 0 min 0 min 0,0 UV-I 0 W/m 0,0 km/h (0 Bft)
19.08.2013 05:02 16,3 C 15,0 C 97 % 1011,8 hPa 0,0 l/m 0 min 0 min 0,0 UV-I 0 W/m 0,0 km/h (0 Bft)
19.08.2013 05:06 16,3 C 15,0 C 97 % 1011,9 hPa 0,0 l/m 0 min 2 min 0,0 UV-I 0 W/m 0,0 km/h (0 Bft)
19.08.2013 05:08 16,3 C 15,0 C 97 % 1012,1 hPa 0,2 l/m 0 min 2 min 0,0 UV-I 0 W/m 0,0 km/h (0 Bft)
19.08.2013 05:10 16,3 C 15,0 C 97 % 1012,2 hPa 0,0 l/m 0 min 2 min 0,0 UV-I 0 W/m 0,0 km/h (0 Bft)
19.08.2013 05:12 16,3 C 15,0 C 97 % 1012,2 hPa 0,0 l/m 0 min 2 min 0,0 UV-I 0 W/m 0,0 km/h (0 Bft)
19.08.2013 05:14 16,2 C 15,0 C 97 % 1012,2 hPa 0,0 l/m 0 min 2 min 0,0 UV-I 0 W/m 0,0 km/h (0 Bft)
19.08.2013 05:16 16,2 C 15,0 C 97 % 1012,2 hPa 0,0 l/m 0 min 0 min 0,0 UV-I 0 W/m 0,0 km/h (0 Bft)
19.08.2013 05:18 16,2 C 14,4 C 97 % 1012,3 hPa 0,0 l/m 0 min 0 min 0,0 UV-I 0 W/m 0,0 km/h (0 Bft)
19.08.2013 05:20 16,2 C 14,4 C 99 % 1012,3 hPa 0,0 l/m 0 min 0 min 0,0 UV-I 0 W/m 0,0 km/h (0 Bft)
19.08.2013 05:22 16,1 C 14,4 C 97 % 1012,4 hPa 0,0 l/m 0 min 0 min 0,0 UV-I 0 W/m 2,6 km/h (1 Bft)
19.08.2013 05:24 16,1 C 14,4 C 97 % 1012,4 hPa 0,0 l/m 0 min 0 min 0,0 UV-I 0 W/m 0,0 km/h (0 Bft)
19.08.2013 05:26 16,1 C 14,4 C 97 % 1012,4 hPa 0,0 l/m 0 min 0 min 0,0 UV-I 0 W/m 0,0 km/h (0 Bft)
19.08.2013 05:28 16,0 C 14,4 C 97 % 1012,4 hPa 0,0 l/m 0 min 0 min 0,0 UV-I 0 W/m 0,0 km/h (0 Bft)
19.08.2013 05:30 15,9 C 14,4 C 97 % 1012,5 hPa 0,0 l/m 0 min 0 min 0,0 UV-I 0 W/m 0,0 km/h (0 Bft)
19.08.2013 05:32 15,9 C 14,4 C 97 % 1012,4 hPa 0,0 l/m 0 min 0 min 0,0 UV-I 0 W/m 0,0 km/h (0 Bft)
19.08.2013 05:34 15,9 C 14,4 C 97 % 1012,5 hPa 0,0 l/m 0 min 0 min 0,0 UV-I 0 W/m 0,0 km/h (0 Bft)
19.08.2013 05:36 15,9 C 14,4 C 97 % 1012,5 hPa 0,0 l/m 0 min 0 min 0,0 UV-I 0 W/m 0,0 km/h (0 Bft)
19.08.2013 05:38 15,9 C 14,4 C 97 % 1012,5 hPa 0,0 l/m 0 min 0 min 0,0 UV-I 0 W/m 0,0 km/h (0 Bft)
19.08.2013 05:40 15,8 C 14,4 C 97 % 1012,5 hPa 0,0 l/m 0 min 0 min 0,0 UV-I 0 W/m 0,0 km/h (0 Bft)
19.08.2013 05:42 15,8 C 14,4 C 97 % 1012,5 hPa 0,0 l/m 0 min 0 min 0,0 UV-I 0 W/m 0,0 km/h (0 Bft)
19.08.2013 05:44 15,8 C 14,4 C 97 % 1012,5 hPa 0,0 l/m 0 min 0 min 0,0 UV-I 0 W/m 0,0 km/h (0 Bft)
19.08.2013 05:46 15,7 C 14,4 C 97 % 1012,5 hPa 0,0 l/m 0 min 0 min 0,0 UV-I 0 W/m 0,0 km/h (0 Bft)
19.08.2013 05:48 15,7 C 14,4 C 97 % 1012,5 hPa 0,0 l/m 0 min 0 min 0,0 UV-I 0 W/m 0,0 km/h (0 Bft)
19.08.2013 05:50 15,7 C 13,9 C 97 % 1012,5 hPa 0,0 l/m 0 min 0 min 0,0 UV-I 0 W/m 0,0 km/h (0 Bft)
19.08.2013 05:52 15,7 C 13,9 C 97 % 1012,5 hPa 0,0 l/m 0 min 0 min 0,0 UV-I 0 W/m 0,0 km/h (0 Bft)
19.08.2013 05:54 15,7 C 13,9 C 97 % 1012,5 hPa 0,0 l/m 0 min 0 min 0,0 UV-I 0 W/m 0,0 km/h (0 Bft)
19.08.2013 05:56 15,6 C 13,9 C 97 % 1012,5 hPa 0,0 l/m 0 min 0 min 0,0 UV-I 0 W/m 0,0 km/h (0 Bft)
19.08.2013 05:58 15,6 C 13,9 C 97 % 1012,5 hPa 0,0 l/m 0 min 0 min 0,0 UV-I 0 W/m 0,0 km/h (0 Bft)
19.08.2013 06:00 15,6 C 13,9 C 97 % 1012,6 hPa 0,0 l/m 0 min 0 min 0,0 UV-I 0 W/m 0,0 km/h (0 Bft)
19.08.2013 06:02 15,6 C 13,9 C 97 % 1012,6 hPa 0,0 l/m 0 min 0 min 0,0 UV-I 0 W/m 0,0 km/h (0 Bft)
19.08.2013 06:06 15,6 C 13,9 C 97 % 1012,6 hPa 0,0 l/m 0 min 0 min 0,0 UV-I 0 W/m 0,0 km/h (0 Bft)
19.08.2013 06:08 15,6 C 13,9 C 97 % 1012,6 hPa 0,0 l/m 0 min 0 min 0,0 UV-I 0 W/m 0,0 km/h (0 Bft)
19.08.2013 06:10 15,5 C 13,9 C 97 % 1012,6 hPa 0,0 l/m 0 min 0 min 0,0 UV-I 0 W/m 0,0 km/h (0 Bft)
19.08.2013 06:12 15,5 C 13,9 C 97 % 1012,6 hPa 0,0 l/m 0 min 0 min 0,0 UV-I 0 W/m 0,0 km/h (0 Bft)
19.08.2013 06:14 15,5 C 13,9 C 97 % 1012,7 hPa 0,0 l/m 0 min 0 min 0,0 UV-I 0 W/m 0,0 km/h (0 Bft)
19.08.2013 06:16 15,4 C 13,9 C 97 % 1012,6 hPa 0,0 l/m 0 min 0 min 0,0 UV-I 0 W/m 0,0 km/h (0 Bft)
19.08.2013 06:18 15,4 C 13,9 C 97 % 1012,7 hPa 0,0 l/m 0 min 0 min 0,0 UV-I 0 W/m 2,6 km/h (1 Bft)
19.08.2013 06:20 15,4 C 13,9 C 97 % 1012,7 hPa 0,0 l/m 0 min 0 min 0,0 UV-I 0 W/m 0,0 km/h (0 Bft)
19.08.2013 06:22 15,4 C 13,9 C 97 % 1012,6 hPa 0,0 l/m 0 min 0 min 0,0 UV-I 0 W/m 0,0 km/h (0 Bft)
19.08.2013 06:24 15,4 C 13,9 C 97 % 1012,6 hPa 0,0 l/m 0 min 0 min 0,0 UV-I 0 W/m 0,0 km/h (0 Bft)
19.08.2013 06:26 15,4 C 13,9 C 97 % 1012,7 hPa 0,0 l/m 0 min 0 min 0,0 UV-I 0 W/m 0,0 km/h (0 Bft)
19.08.2013 06:28 15,4 C 13,9 C 97 % 1012,7 hPa 0,0 l/m 0 min 0 min 0,0 UV-I 0 W/m 0,0 km/h (0 Bft)
19.08.2013 06:30 15,4 C 13,9 C 97 % 1012,7 hPa 0,0 l/m 0 min 0 min 0,0 UV-I 0 W/m 0,0 km/h (0 Bft)
19.08.2013 06:32 15,5 C 14,4 C 97 % 1012,7 hPa 0,0 l/m 0 min 0 min 0,0 UV-I 0 W/m 0,0 km/h (0 Bft)
19.08.2013 06:34 15,5 C 14,4 C 97 % 1012,7 hPa 0,0 l/m 0 min 0 min 0,0 UV-I 0 W/m 0,0 km/h (0 Bft)
19.08.2013 06:36 15,5 C 14,4 C 97 % 1012,8 hPa 0,0 l/m 0 min 0 min 0,0 UV-I 0 W/m 2,6 km/h (1 Bft)
19.08.2013 06:38 15,5 C 14,4 C 97 % 1012,8 hPa 0,0 l/m 0 min 0 min 0,0 UV-I 5 W/m 2,6 km/h (1 Bft)
19.08.2013 06:40 15,6 C 14,4 C 97 % 1012,8 hPa 0,0 l/m 0 min 0 min 0,0 UV-I 7 W/m 0,0 km/h (0 Bft)
19.08.2013 06:42 15,6 C 14,4 C 98 % 1012,7 hPa 0,0 l/m 0 min 0 min 0,0 UV-I 7 W/m 0,0 km/h (0 Bft)
19.08.2013 06:44 15,6 C 14,4 C 98 % 1012,8 hPa 0,0 l/m 0 min 0 min 0,0 UV-I 7 W/m 0,0 km/h (0 Bft)
19.08.2013 06:46 15,6 C 14,4 C 98 % 1012,8 hPa 0,0 l/m 0 min 0 min 0,0 UV-I 7 W/m 0,0 km/h (0 Bft)
19.08.2013 06:48 15,6 C 14,4 C 98 % 1012,7 hPa 0,0 l/m 0 min 0 min 0,0 UV-I 7 W/m 0,0 km/h (0 Bft)
19.08.2013 06:50 15,6 C 14,4 C 98 % 1012,7 hPa 0,0 l/m 0 min 0 min 0,0 UV-I 9 W/m 0,0 km/h (0 Bft)
19.08.2013 06:52 15,6 C 14,4 C 98 % 1012,7 hPa 0,0 l/m 0 min 0 min 0,0 UV-I 9 W/m 0,0 km/h (0 Bft)
19.08.2013 06:54 15,6 C 14,4 C 98 % 1012,8 hPa 0,0 l/m 0 min 0 min 0,0 UV-I 9 W/m 0,0 km/h (0 Bft)
19.08.2013 06:56 15,5 C 14,4 C 98 % 1012,8 hPa 0,0 l/m 0 min 0 min 0,0 UV-I 11 W/m 0,0 km/h (0 Bft)
19.08.2013 06:58 15,6 C 14,4 C 98 % 1012,8 hPa 0,0 l/m 0 min 0 min 0,0 UV-I 11 W/m 0,0 km/h (0 Bft)
19.08.2013 07:00 15,5 C 14,4 C 98 % 1012,8 hPa 0,0 l/m 0 min 0 min 0,0 UV-I 11 W/m 0,0 km/h (0 Bft)
19.08.2013 07:02 15,5 C 14,4 C 98 % 1012,9 hPa 0,0 l/m 0 min 0 min 0,0 UV-I 11 W/m 0,0 km/h (0 Bft)
19.08.2013 07:06 15,5 C 14,4 C 97 % 1012,8 hPa 0,0 l/m 0 min 0 min 0,0 UV-I 19 W/m 0,0 km/h (0 Bft)
19.08.2013 07:08 15,5 C 14,4 C 97 % 1012,8 hPa 0,0 l/m 0 min 0 min 0,0 UV-I 19 W/m 0,0 km/h (0 Bft)
19.08.2013 07:10 15,5 C 14,4 C 97 % 1012,8 hPa 0,0 l/m 0 min 0 min 0,0 UV-I 25 W/m 0,0 km/h (0 Bft)
19.08.2013 07:12 15,5 C 14,4 C 97 % 1012,9 hPa 0,0 l/m 0 min 0 min 0,0 UV-I 28 W/m 0,0 km/h (0 Bft)
19.08.2013 07:14 15,5 C 14,4 C 97 % 1012,9 hPa 0,0 l/m 0 min 0 min 0,0 UV-I 28 W/m 2,6 km/h (1 Bft)
19.08.2013 07:16 15,5 C 14,4 C 97 % 1012,9 hPa 0,0 l/m 0 min 0 min 0,0 UV-I 25 W/m 0,0 km/h (0 Bft)
19.08.2013 07:18 15,5 C 14,4 C 97 % 1012,9 hPa 0,0 l/m 0 min 0 min 0,0 UV-I 25 W/m 0,0 km/h (0 Bft)
19.08.2013 07:20 15,4 C 14,4 C 97 % 1012,9 hPa 0,0 l/m 0 min 0 min 0,0 UV-I 25 W/m 2,6 km/h (1 Bft)
19.08.2013 07:22 15,4 C 13,9 C 97 % 1012,9 hPa 0,0 l/m 0 min 0 min 0,0 UV-I 30 W/m 0,0 km/h (0 Bft)
19.08.2013 07:24 15,4 C 13,9 C 97 % 1012,9 hPa 0,0 l/m 0 min 0 min 0,0 UV-I 33 W/m 0,0 km/h (0 Bft)
19.08.2013 07:26 15,4 C 13,9 C 97 % 1012,9 hPa 0,0 l/m 0 min 0 min 0,0 UV-I 37 W/m 0,0 km/h (0 Bft)
19.08.2013 07:28 15,4 C 13,9 C 97 % 1012,9 hPa 0,0 l/m 0 min 0 min 0,0 UV-I 42 W/m 0,0 km/h (0 Bft)
19.08.2013 07:30 15,4 C 13,9 C 97 % 1013,0 hPa 0,0 l/m 0 min 0 min 0,0 UV-I 46 W/m 0,0 km/h (0 Bft)
19.08.2013 07:32 15,4 C 13,9 C 97 % 1012,9 hPa 0,0 l/m 0 min 0 min 0,0 UV-I 49 W/m 0,0 km/h (0 Bft)
19.08.2013 07:34 15,3 C 13,9 C 97 % 1012,9 hPa 0,0 l/m 0 min 0 min 0,0 UV-I 49 W/m 0,0 km/h (0 Bft)
19.08.2013 07:36 15,3 C 13,9 C 97 % 1012,9 hPa 0,0 l/m 0 min 0 min 0,0 UV-I 49 W/m 2,6 km/h (1 Bft)
19.08.2013 07:38 15,3 C 13,9 C 97 % 1012,9 hPa 0,0 l/m 0 min 0 min 0,0 UV-I 47 W/m 0,0 km/h (0 Bft)
19.08.2013 07:40 15,3 C 13,9 C 97 % 1012,9 hPa 0,0 l/m 0 min 0 min 0,0 UV-I 42 W/m 0,0 km/h (0 Bft)
19.08.2013 07:42 15,3 C 13,9 C 97 % 1012,9 hPa 0,0 l/m 0 min 0 min 0,0 UV-I 33 W/m 0,0 km/h (0 Bft)
19.08.2013 07:44 15,3 C 13,9 C 97 % 1012,9 hPa 0,0 l/m 0 min 0 min 0,0 UV-I 30 W/m 0,0 km/h (0 Bft)
19.08.2013 07:46 15,3 C 13,9 C 97 % 1012,9 hPa 0,0 l/m 0 min 0 min 0,0 UV-I 28 W/m 2,6 km/h (1 Bft)
19.08.2013 07:48 15,3 C 13,9 C 97 % 1013,0 hPa 0,0 l/m 0 min 0 min 0,0 UV-I 25 W/m 0,0 km/h (0 Bft)
19.08.2013 07:50 15,3 C 13,9 C 97 % 1013,0 hPa 0,0 l/m 0 min 0 min 0,0 UV-I 32 W/m 0,0 km/h (0 Bft)
19.08.2013 07:52 15,3 C 13,9 C 97 % 1012,9 hPa 0,0 l/m 0 min 0 min 0,0 UV-I 35 W/m 0,0 km/h (0 Bft)
19.08.2013 07:54 15,3 C 13,9 C 97 % 1013,0 hPa 0,0 l/m 0 min 0 min 0,0 UV-I 35 W/m 2,6 km/h (1 Bft)
19.08.2013 07:56 15,3 C 13,9 C 97 % 1013,0 hPa 0,0 l/m 0 min 0 min 0,0 UV-I 35 W/m 0,0 km/h (0 Bft)
19.08.2013 07:58 15,3 C 13,9 C 97 % 1013,1 hPa 0,0 l/m 0 min 0 min 0,0 UV-I 35 W/m 0,0 km/h (0 Bft)
19.08.2013 08:00 15,3 C 13,9 C 97 % 1013,1 hPa 0,0 l/m 0 min 0 min 0,0 UV-I 35 W/m 0,0 km/h (0 Bft)
19.08.2013 08:02 15,3 C 13,9 C 97 % 1013,2 hPa 0,0 l/m 0 min 0 min 0,0 UV-I 37 W/m 0,0 km/h (0 Bft)
19.08.2013 08:06 15,4 C 13,9 C 97 % 1013,1 hPa 0,0 l/m 0 min 0 min 0,0 UV-I 37 W/m 2,6 km/h (1 Bft)
19.08.2013 08:08 15,4 C 13,9 C 97 % 1013,1 hPa 0,0 l/m 0 min 0 min 0,0 UV-I 39 W/m 0,0 km/h (0 Bft)
19.08.2013 08:10 15,4 C 13,9 C 97 % 1013,1 hPa 0,0 l/m 0 min 0 min 0,0 UV-I 39 W/m 2,6 km/h (1 Bft)
19.08.2013 08:12 15,4 C 13,9 C 97 % 1013,1 hPa 0,0 l/m 0 min 0 min 0,0 UV-I 40 W/m 2,6 km/h (1 Bft)
19.08.2013 08:14 15,4 C 13,9 C 97 % 1013,3 hPa 0,0 l/m 0 min 0 min 0,0 UV-I 44 W/m 0,0 km/h (0 Bft)
19.08.2013 08:16 15,5 C 13,9 C 97 % 1013,3 hPa 0,0 l/m 0 min 0 min 0,0 UV-I 47 W/m 2,6 km/h (1 Bft)
19.08.2013 08:18 15,5 C 13,9 C 96 % 1013,3 hPa 0,0 l/m 0 min 0 min 0,0 UV-I 56 W/m 2,6 km/h (1 Bft)
19.08.2013 08:20 15,6 C 13,9 C 96 % 1013,4 hPa 0,0 l/m 0 min 0 min 0,0 UV-I 69 W/m 0,0 km/h (0 Bft)
19.08.2013 08:22 15,6 C 13,9 C 96 % 1013,3 hPa 0,0 l/m 0 min 0 min 0,0 UV-I 86 W/m 5,1 km/h (1 Bft)
19.08.2013 08:24 15,6 C 13,9 C 96 % 1013,3 hPa 0,0 l/m 2 min 0 min 0,0 UV-I 220 W/m 2,6 km/h (1 Bft)
19.08.2013 08:26 15,7 C 13,9 C 96 % 1013,3 hPa 0,0 l/m 2 min 0 min 0,0 UV-I 218 W/m 0,0 km/h (0 Bft)
19.08.2013 08:28 15,7 C 13,9 C 96 % 1013,3 hPa 0,0 l/m 2 min 0 min 0,0 UV-I 220 W/m 0,0 km/h (0 Bft)
19.08.2013 08:30 15,8 C 13,9 C 96 % 1013,4 hPa 0,0 l/m 2 min 0 min 0,0 UV-I 229 W/m 0,0 km/h (0 Bft)
19.08.2013 08:32 15,8 C 13,9 C 96 % 1013,3 hPa 0,0 l/m 2 min 0 min 0,0 UV-I 237 W/m 5,1 km/h (1 Bft)
19.08.2013 08:34 15,8 C 13,9 C 96 % 1013,4 hPa 0,0 l/m 2 min 0 min 0,0 UV-I 236 W/m 10,3 km/h (2 Bft)
19.08.2013 08:36 15,8 C 13,9 C 95 % 1013,4 hPa 0,0 l/m 2 min 0 min 0,0 UV-I 248 W/m 5,1 km/h (1 Bft)
19.08.2013 08:38 15,9 C 13,9 C 95 % 1013,3 hPa 0,0 l/m 2 min 0 min 0,0 UV-I 260 W/m 12,9 km/h (3 Bft)
19.08.2013 08:40 15,9 C 14,4 C 95 % 1013,4 hPa 0,0 l/m 2 min 0 min 0,0 UV-I 271 W/m 0,0 km/h (0 Bft)
19.08.2013 08:42 16,0 C 14,4 C 95 % 1013,4 hPa 0,0 l/m 2 min 0 min 0,0 UV-I 308 W/m 0,0 km/h (0 Bft)
19.08.2013 08:44 16,1 C 14,4 C 95 % 1013,4 hPa 0,0 l/m 2 min 0 min 0,0 UV-I 359 W/m 2,6 km/h (1 Bft)
19.08.2013 08:46 16,3 C 15,0 C 95 % 1013,4 hPa 0,0 l/m 2 min 0 min 0,0 UV-I 278 W/m 0,0 km/h (0 Bft)
19.08.2013 08:48 16,3 C 15,0 C 95 % 1013,4 hPa 0,0 l/m 0 min 0 min 0,0 UV-I 156 W/m 12,9 km/h (3 Bft)
19.08.2013 08:50 16,3 C 15,0 C 94 % 1013,5 hPa 0,0 l/m 0 min 0 min 0,0 UV-I 156 W/m 15,4 km/h (3 Bft)
19.08.2013 08:52 16,4 C 15,0 C 94 % 1013,7 hPa 0,0 l/m 0 min 0 min 0,0 UV-I 137 W/m 33,5 km/h (5 Bft)
19.08.2013 08:54 16,3 C 15,0 C 93 % 1013,5 hPa 0,0 l/m 0 min 0 min 0,0 UV-I 135 W/m 18,0 km/h (3 Bft)
19.08.2013 08:56 16,4 C 15,0 C 93 % 1013,5 hPa 0,0 l/m 0 min 0 min 0,0 UV-I 104 W/m 10,3 km/h (2 Bft)
19.08.2013 08:58 16,4 C 15,0 C 93 % 1013,6 hPa 0,0 l/m 0 min 0 min 0,0 UV-I 125 W/m 5,1 km/h (1 Bft)
19.08.2013 09:00 16,4 C 15,0 C 93 % 1013,6 hPa 0,0 l/m 0 min 0 min 0,0 UV-I 137 W/m 7,7 km/h (2 Bft)
19.08.2013 09:02 16,4 C 15,0 C 93 % 1013,6 hPa 0,0 l/m 0 min 0 min 0,0 UV-I 195 W/m 15,4 km/h (3 Bft)
19.08.2013 09:06 16,5 C 15,0 C 93 % 1013,7 hPa 0,0 l/m 0 min 0 min 0,0 UV-I 158 W/m 10,3 km/h (2 Bft)
19.08.2013 09:08 16,6 C 15,0 C 92 % 1013,7 hPa 0,0 l/m 2 min 0 min 0,0 UV-I 272 W/m 12,9 km/h (3 Bft)
19.08.2013 09:10 16,7 C 15,6 C 92 % 1013,7 hPa 0,0 l/m 0 min 0 min 0,0 UV-I 209 W/m 7,7 km/h (2 Bft)
19.08.2013 09:12 16,8 C 15,6 C 92 % 1013,7 hPa 0,0 l/m 0 min 0 min 0,0 UV-I 200 W/m 12,9 km/h (3 Bft)
19.08.2013 09:14 16,8 C 15,6 C 92 % 1013,9 hPa 0,0 l/m 0 min 0 min 0,0 UV-I 113 W/m 18,0 km/h (3 Bft)
19.08.2013 09:16 16,8 C 15,6 C 91 % 1013,8 hPa 0,0 l/m 0 min 0 min 0,0 UV-I 53 W/m 10,3 km/h (2 Bft)
19.08.2013 09:18 16,7 C 15,0 C 91 % 1013,9 hPa 0,0 l/m 0 min 0 min 0,0 UV-I 51 W/m 18,0 km/h (3 Bft)
19.08.2013 09:20 16,7 C 15,0 C 90 % 1013,9 hPa 0,0 l/m 0 min 0 min 0,0 UV-I 49 W/m 18,0 km/h (3 Bft)
19.08.2013 09:22 16,5 C 15,0 C 90 % 1013,9 hPa 0,0 l/m 0 min 0 min 0,0 UV-I 60 W/m 12,9 km/h (3 Bft)
19.08.2013 09:24 16,4 C 15,0 C 90 % 1013,9 hPa 0,0 l/m 0 min 0 min 0,0 UV-I 109 W/m 2,6 km/h (1 Bft)
19.08.2013 09:26 16,3 C 15,0 C 91 % 1014,0 hPa 0,0 l/m 0 min 0 min 0,0 UV-I 81 W/m 2,6 km/h (1 Bft)
19.08.2013 09:28 16,3 C 15,0 C 91 % 1014,0 hPa 0,0 l/m 0 min 0 min 0,0 UV-I 97 W/m 12,9 km/h (3 Bft)
19.08.2013 09:30 16,3 C 15,0 C 91 % 1014,0 hPa 0,0 l/m 0 min 0 min 0,0 UV-I 90 W/m 0,0 km/h (0 Bft)
19.08.2013 09:32 16,2 C 15,0 C 91 % 1014,0 hPa 0,0 l/m 0 min 0 min 0,0 UV-I 102 W/m 12,9 km/h (3 Bft)
19.08.2013 09:34 16,2 C 15,0 C 91 % 1014,1 hPa 0,0 l/m 0 min 0 min 0,0 UV-I 132 W/m 12,9 km/h (3 Bft)
19.08.2013 09:36 16,2 C 15,0 C 91 % 1014,1 hPa 0,0 l/m 0 min 0 min 0,0 UV-I 153 W/m 15,4 km/h (3 Bft)
19.08.2013 09:38 16,3 C 15,6 C 91 % 1014,1 hPa 0,0 l/m 0 min 0 min 0,0 UV-I 174 W/m 2,6 km/h (1 Bft)
19.08.2013 09:40 16,3 C 15,6 C 91 % 1014,1 hPa 0,0 l/m 0 min 0 min 0,5 UV-I 246 W/m 10,3 km/h (2 Bft)
19.08.2013 09:42 16,4 C 15,6 C 91 % 1014,1 hPa 0,0 l/m 0 min 0 min 0,5 UV-I 181 W/m 10,3 km/h (2 Bft)
19.08.2013 09:44 16,4 C 15,6 C 91 % 1014,1 hPa 0,0 l/m 0 min 0 min 0,6 UV-I 202 W/m 7,7 km/h (2 Bft)
19.08.2013 09:46 16,6 C 16,1 C 91 % 1014,1 hPa 0,0 l/m 2 min 0 min 0,5 UV-I 290 W/m 7,7 km/h (2 Bft)
19.08.2013 09:48 16,7 C 16,1 C 91 % 1014,1 hPa 0,0 l/m 0 min 0 min 0,0 UV-I 213 W/m 12,9 km/h (3 Bft)
19.08.2013 09:50 16,8 C 16,1 C 90 % 1014,1 hPa 0,0 l/m 0 min 0 min 0,0 UV-I 197 W/m 12,9 km/h (3 Bft)
19.08.2013 09:52 16,8 C 16,1 C 90 % 1014,1 hPa 0,0 l/m 0 min 0 min 0,0 UV-I 165 W/m 0,0 km/h (0 Bft)
19.08.2013 09:54 16,9 C 16,1 C 90 % 1014,1 hPa 0,0 l/m 0 min 0 min 0,0 UV-I 162 W/m 7,7 km/h (2 Bft)
19.08.2013 09:56 16,9 C 16,1 C 90 % 1014,1 hPa 0,0 l/m 0 min 0 min 0,0 UV-I 169 W/m 0,0 km/h (0 Bft)
19.08.2013 09:58 16,9 C 16,1 C 89 % 1014,1 hPa 0,0 l/m 0 min 0 min 0,0 UV-I 172 W/m 10,3 km/h (2 Bft)
19.08.2013 10:00 16,9 C 16,1 C 89 % 1014,1 hPa 0,0 l/m 0 min 0 min 0,0 UV-I 134 W/m 2,6 km/h (1 Bft)
19.08.2013 10:02 16,9 C 16,1 C 89 % 1014,1 hPa 0,0 l/m 0 min 0 min 0,0 UV-I 128 W/m 0,0 km/h (0 Bft)
19.08.2013 10:06 16,9 C 16,1 C 89 % 1014,2 hPa 0,0 l/m 0 min 0 min 0,0 UV-I 206 W/m 0,0 km/h (0 Bft)
19.08.2013 10:08 16,9 C 16,1 C 89 % 1014,2 hPa 0,0 l/m 0 min 0 min 0,5 UV-I 234 W/m 10,3 km/h (2 Bft)
19.08.2013 10:10 17,0 C 16,7 C 89 % 1014,2 hPa 0,0 l/m 0 min 0 min 0,5 UV-I 248 W/m 2,6 km/h (1 Bft)
19.08.2013 10:12 17,0 C 16,7 C 90 % 1014,2 hPa 0,0 l/m 0 min 0 min 0,6 UV-I 258 W/m 2,6 km/h (1 Bft)
19.08.2013 10:14 17,1 C 16,7 C 89 % 1014,2 hPa 0,0 l/m 0 min 0 min 0,7 UV-I 276 W/m 12,9 km/h (3 Bft)
19.08.2013 10:16 17,2 C 16,7 C 89 % 1014,3 hPa 0,0 l/m 0 min 0 min 0,6 UV-I 262 W/m 5,1 km/h (1 Bft)
19.08.2013 10:18 17,3 C 16,7 C 89 % 1014,3 hPa 0,0 l/m 0 min 0 min 0,6 UV-I 250 W/m 7,7 km/h (2 Bft)
19.08.2013 10:20 17,3 C 16,7 C 89 % 1014,3 hPa 0,0 l/m 0 min 0 min 0,6 UV-I 234 W/m 18,0 km/h (3 Bft)
19.08.2013 10:22 17,4 C 16,7 C 88 % 1014,3 hPa 0,0 l/m 0 min 0 min 0,7 UV-I 255 W/m 2,6 km/h (1 Bft)
19.08.2013 10:24 17,4 C 17,2 C 88 % 1014,2 hPa 0,0 l/m 0 min 0 min 0,7 UV-I 260 W/m 0,0 km/h (0 Bft)
19.08.2013 10:26 17,5 C 17,2 C 88 % 1014,2 hPa 0,0 l/m 0 min 0 min 0,9 UV-I 281 W/m 0,0 km/h (0 Bft)
19.08.2013 10:28 17,6 C 17,2 C 88 % 1014,3 hPa 0,0 l/m 0 min 0 min 0,7 UV-I 244 W/m 5,1 km/h (1 Bft)
19.08.2013 10:30 17,6 C 17,2 C 87 % 1014,3 hPa 0,0 l/m 0 min 0 min 0,9 UV-I 285 W/m 10,3 km/h (2 Bft)
19.08.2013 10:32 17,7 C 17,8 C 88 % 1014,4 hPa 0,0 l/m 2 min 0 min 1,0 UV-I 352 W/m 15,4 km/h (3 Bft)
19.08.2013 10:34 17,8 C 17,8 C 87 % 1014,4 hPa 0,0 l/m 0 min 0 min 0,7 UV-I 269 W/m 10,3 km/h (2 Bft)
19.08.2013 10:36 17,8 C 17,8 C 87 % 1014,4 hPa 0,0 l/m 0 min 0 min 0,0 UV-I 202 W/m 10,3 km/h (2 Bft)
19.08.2013 10:38 17,9 C 17,2 C 87 % 1014,4 hPa 0,0 l/m 0 min 0 min 0,0 UV-I 181 W/m 2,6 km/h (1 Bft)
19.08.2013 10:40 17,8 C 17,2 C 86 % 1014,5 hPa 0,0 l/m 0 min 0 min 0,0 UV-I 146 W/m 15,4 km/h (3 Bft)
19.08.2013 10:42 17,7 C 16,7 C 86 % 1014,5 hPa 0,0 l/m 0 min 0 min 0,0 UV-I 146 W/m 7,7 km/h (2 Bft)
19.08.2013 10:44 17,6 C 16,7 C 86 % 1014,5 hPa 0,0 l/m 0 min 0 min 0,0 UV-I 132 W/m 12,9 km/h (3 Bft)
19.08.2013 10:46 17,5 C 16,7 C 86 % 1014,6 hPa 0,0 l/m 0 min 0 min 0,0 UV-I 163 W/m 18,0 km/h (3 Bft)
19.08.2013 10:48 17,4 C 16,7 C 86 % 1014,6 hPa 0,0 l/m 0 min 0 min 0,0 UV-I 174 W/m 10,3 km/h (2 Bft)
19.08.2013 10:50 17,4 C 16,7 C 87 % 1014,6 hPa 0,0 l/m 0 min 0 min 0,6 UV-I 218 W/m 7,7 km/h (2 Bft)
19.08.2013 10:52 17,4 C 17,2 C 87 % 1014,6 hPa 0,0 l/m 0 min 0 min 0,6 UV-I 220 W/m 10,3 km/h (2 Bft)
19.08.2013 10:54 17,6 C 17,2 C 88 % 1014,7 hPa 0,0 l/m 0 min 0 min 1,0 UV-I 264 W/m 12,9 km/h (3 Bft)
19.08.2013 10:56 17,7 C 17,8 C 88 % 1014,7 hPa 0,0 l/m 0 min 0 min 0,9 UV-I 246 W/m 10,3 km/h (2 Bft)
19.08.2013 10:58 17,7 C 17,2 C 87 % 1014,8 hPa 0,0 l/m 0 min 0 min 0,0 UV-I 181 W/m 2,6 km/h (1 Bft)
19.08.2013 11:00 17,7 C 17,2 C 86 % 1014,8 hPa 0,0 l/m 0 min 0 min 0,5 UV-I 185 W/m 7,7 km/h (2 Bft)
19.08.2013 11:02 17,8 C 17,2 C 86 % 1014,8 hPa 0,0 l/m 0 min 0 min 0,6 UV-I 220 W/m 15,4 km/h (3 Bft)
19.08.2013 11:06 17,9 C 17,8 C 87 % 1014,7 hPa 0,0 l/m 0 min 0 min 0,8 UV-I 274 W/m 10,3 km/h (2 Bft)
19.08.2013 11:08 17,9 C 17,8 C 86 % 1014,7 hPa 0,0 l/m 0 min 0 min 1,4 UV-I 299 W/m 2,6 km/h (1 Bft)
19.08.2013 11:10 18,1 C 17,8 C 87 % 1014,8 hPa 0,0 l/m 0 min 0 min 1,2 UV-I 257 W/m 12,9 km/h (3 Bft)
19.08.2013 11:12 18,1 C 18,3 C 86 % 1014,9 hPa 0,0 l/m 0 min 0 min 1,7 UV-I 304 W/m 10,3 km/h (2 Bft)
19.08.2013 11:14 18,2 C 18,3 C 86 % 1014,9 hPa 0,0 l/m 0 min 0 min 1,1 UV-I 255 W/m 7,7 km/h (2 Bft)
19.08.2013 11:16 18,3 C 18,3 C 86 % 1014,9 hPa 0,0 l/m 0 min 0 min 1,0 UV-I 211 W/m 12,9 km/h (3 Bft)
19.08.2013 11:18 18,3 C 18,3 C 85 % 1014,9 hPa 0,0 l/m 0 min 0 min 1,1 UV-I 278 W/m 7,7 km/h (2 Bft)
19.08.2013 11:20 18,3 C 17,8 C 85 % 1014,9 hPa 0,0 l/m 0 min 0 min 0,0 UV-I 135 W/m 15,4 km/h (3 Bft)
19.08.2013 11:22 18,3 C 17,8 C 85 % 1015,0 hPa 0,0 l/m 0 min 0 min 0,0 UV-I 127 W/m 7,7 km/h (2 Bft)
19.08.2013 11:24 18,2 C 17,8 C 85 % 1015,1 hPa 0,0 l/m 0 min 0 min 0,8 UV-I 160 W/m 2,6 km/h (1 Bft)
19.08.2013 11:26 18,2 C 17,8 C 85 % 1015,2 hPa 0,0 l/m 0 min 0 min 0,8 UV-I 178 W/m 18,0 km/h (3 Bft)
19.08.2013 11:28 18,1 C 17,8 C 86 % 1015,2 hPa 0,0 l/m 0 min 0 min 1,1 UV-I 234 W/m 7,7 km/h (2 Bft)
19.08.2013 11:30 18,2 C 17,8 C 86 % 1015,2 hPa 0,0 l/m 0 min 0 min 1,1 UV-I 290 W/m 12,9 km/h (3 Bft)
19.08.2013 11:32 18,2 C 17,8 C 85 % 1015,2 hPa 0,0 l/m 0 min 0 min 0,8 UV-I 244 W/m 18,0 km/h (3 Bft)
19.08.2013 11:34 18,3 C 17,8 C 86 % 1015,1 hPa 0,0 l/m 0 min 0 min 0,5 UV-I 199 W/m 5,1 km/h (1 Bft)
19.08.2013 11:36 18,3 C 17,8 C 85 % 1015,1 hPa 0,0 l/m 0 min 0 min 0,5 UV-I 178 W/m 10,3 km/h (2 Bft)
19.08.2013 11:38 18,2 C 17,8 C 85 % 1015,1 hPa 0,0 l/m 0 min 0 min 0,6 UV-I 213 W/m 12,9 km/h (3 Bft)
19.08.2013 11:40 18,2 C 17,8 C 85 % 1015,0 hPa 0,0 l/m 0 min 0 min 0,0 UV-I 200 W/m 7,7 km/h (2 Bft)
19.08.2013 11:42 18,2 C 17,8 C 86 % 1015,0 hPa 0,0 l/m 0 min 0 min 0,0 UV-I 163 W/m 7,7 km/h (2 Bft)
19.08.2013 11:44 18,2 C 17,8 C 86 % 1015,1 hPa 0,0 l/m 0 min 0 min 0,0 UV-I 183 W/m 7,7 km/h (2 Bft)
19.08.2013 11:46 18,2 C 17,8 C 86 % 1015,0 hPa 0,0 l/m 0 min 0 min 0,0 UV-I 188 W/m 5,1 km/h (1 Bft)
19.08.2013 11:48 18,3 C 17,8 C 87 % 1015,3 hPa 0,0 l/m 0 min 0 min 0,6 UV-I 188 W/m 2,6 km/h (1 Bft)
19.08.2013 11:50 18,4 C 18,3 C 87 % 1015,1 hPa 0,0 l/m 0 min 0 min 0,9 UV-I 260 W/m 10,3 km/h (2 Bft)
19.08.2013 11:52 18,5 C 18,3 C 87 % 1015,1 hPa 0,0 l/m 0 min 0 min 0,7 UV-I 216 W/m 0,0 km/h (0 Bft)
19.08.2013 11:54 18,6 C 18,3 C 86 % 1015,1 hPa 0,0 l/m 0 min 0 min 0,9 UV-I 216 W/m 0,0 km/h (0 Bft)
19.08.2013 11:56 18,7 C 18,3 C 86 % 1015,1 hPa 0,0 l/m 0 min 0 min 0,9 UV-I 243 W/m 2,6 km/h (1 Bft)
19.08.2013 11:58 18,7 C 18,3 C 86 % 1015,1 hPa 0,0 l/m 0 min 0 min 0,0 UV-I 144 W/m 5,1 km/h (1 Bft)
19.08.2013 12:00 18,6 C 17,8 C 85 % 1015,2 hPa 0,0 l/m 0 min 0 min 0,0 UV-I 86 W/m 2,6 km/h (1 Bft)
19.08.2013 12:02 18,5 C 17,8 C 85 % 1015,3 hPa 0,0 l/m 0 min 0 min 0,0 UV-I 142 W/m 12,9 km/h (3 Bft)
19.08.2013 12:06 18,3 C 17,2 C 86 % 1015,4 hPa 0,2 l/m 0 min 2 min 0,0 UV-I 185 W/m 12,9 km/h (3 Bft)
19.08.2013 12:08 18,1 C 15,0 C 86 % 1015,3 hPa 0,2 l/m 0 min 2 min 0,0 UV-I 84 W/m 18,0 km/h (3 Bft)
19.08.2013 12:10 17,7 C 14,4 C 85 % 1015,4 hPa 0,0 l/m 0 min 2 min 0,0 UV-I 95 W/m 7,7 km/h (2 Bft)
19.08.2013 12:12 17,2 C 14,4 C 85 % 1015,4 hPa 0,0 l/m 0 min 2 min 0,0 UV-I 111 W/m 7,7 km/h (2 Bft)
19.08.2013 12:14 16,9 C 14,4 C 87 % 1015,4 hPa 0,2 l/m 0 min 2 min 0,7 UV-I 206 W/m 0,0 km/h (0 Bft)
19.08.2013 12:16 16,9 C 15,6 C 89 % 1015,3 hPa 0,0 l/m 0 min 2 min 1,0 UV-I 264 W/m 12,9 km/h (3 Bft)
19.08.2013 12:18 17,1 C 15,6 C 91 % 1015,3 hPa 0,2 l/m 0 min 2 min 0,9 UV-I 243 W/m 5,1 km/h (1 Bft)
19.08.2013 12:20 17,1 C 16,1 C 92 % 1015,3 hPa 0,2 l/m 0 min 2 min 0,8 UV-I 225 W/m 2,6 km/h (1 Bft)
19.08.2013 12:22 17,2 C 15,6 C 93 % 1015,4 hPa 0,0 l/m 0 min 2 min 0,6 UV-I 181 W/m 10,3 km/h (2 Bft)
19.08.2013 12:24 17,2 C 16,1 C 93 % 1015,4 hPa 0,2 l/m 0 min 2 min 0,7 UV-I 171 W/m 0,0 km/h (0 Bft)
19.08.2013 12:26 17,3 C 16,1 C 93 % 1015,4 hPa 0,0 l/m 0 min 2 min 0,9 UV-I 193 W/m 0,0 km/h (0 Bft)
19.08.2013 12:28 17,3 C 16,1 C 94 % 1015,5 hPa 0,0 l/m 0 min 2 min 1,0 UV-I 204 W/m 2,6 km/h (1 Bft)
19.08.2013 12:30 17,3 C 16,1 C 94 % 1015,5 hPa 0,0 l/m 0 min 2 min 1,0 UV-I 197 W/m 18,0 km/h (3 Bft)
19.08.2013 12:32 17,2 C 15,6 C 94 % 1015,6 hPa 0,0 l/m 0 min 2 min 0,9 UV-I 193 W/m 7,7 km/h (2 Bft)
19.08.2013 12:34 17,0 C 15,6 C 93 % 1015,5 hPa 0,2 l/m 0 min 2 min 0,8 UV-I 197 W/m 15,4 km/h (3 Bft)
19.08.2013 12:36 16,8 C 15,6 C 92 % 1015,6 hPa 0,0 l/m 0 min 0 min 0,8 UV-I 190 W/m 12,9 km/h (3 Bft)
19.08.2013 12:38 16,7 C 15,6 C 92 % 1015,6 hPa 0,0 l/m 0 min 0 min 0,7 UV-I 186 W/m 5,1 km/h (1 Bft)
19.08.2013 12:40 16,7 C 15,6 C 92 % 1015,6 hPa 0,0 l/m 0 min 2 min 0,7 UV-I 179 W/m 2,6 km/h (1 Bft)
19.08.2013 12:42 16,6 C 15,0 C 91 % 1015,7 hPa 0,0 l/m 0 min 2 min 0,5 UV-I 149 W/m 5,1 km/h (1 Bft)
19.08.2013 12:44 16,6 C 15,0 C 92 % 1015,8 hPa 0,2 l/m 0 min 2 min 0,0 UV-I 130 W/m 2,6 km/h (1 Bft)
19.08.2013 12:46 16,5 C 15,0 C 92 % 1015,9 hPa 0,0 l/m 0 min 2 min 0,0 UV-I 134 W/m 2,6 km/h (1 Bft)
19.08.2013 12:48 16,4 C 14,4 C 92 % 1015,9 hPa 0,2 l/m 0 min 2 min 0,5 UV-I 162 W/m 10,3 km/h (2 Bft)
19.08.2013 12:50 16,3 C 15,0 C 92 % 1015,8 hPa 0,2 l/m 0 min 2 min 0,8 UV-I 192 W/m 18,0 km/h (3 Bft)
19.08.2013 12:52 16,3 C 15,0 C 93 % 1015,8 hPa 0,0 l/m 0 min 2 min 0,9 UV-I 218 W/m 5,1 km/h (1 Bft)
19.08.2013 12:54 16,3 C 15,0 C 93 % 1015,8 hPa 0,0 l/m 0 min 2 min 1,1 UV-I 253 W/m 5,1 km/h (1 Bft)
19.08.2013 12:56 16,3 C 15,0 C 93 % 1015,8 hPa 0,0 l/m 0 min 2 min 1,4 UV-I 283 W/m 15,4 km/h (3 Bft)
19.08.2013 12:58 16,3 C 15,6 C 94 % 1015,7 hPa 0,0 l/m 0 min 2 min 1,5 UV-I 336 W/m 12,9 km/h (3 Bft)
19.08.2013 13:00 16,3 C 15,6 C 94 % 1015,7 hPa 0,0 l/m 0 min 0 min 1,4 UV-I 297 W/m 7,7 km/h (2 Bft)
19.08.2013 13:02 16,4 C 15,0 C 93 % 1015,8 hPa 0,0 l/m 0 min 0 min 1,3 UV-I 281 W/m 12,9 km/h (3 Bft)
19.08.2013 13:06 16,7 C 16,1 C 94 % 1015,9 hPa 0,0 l/m 0 min 0 min 0,8 UV-I 195 W/m 10,3 km/h (2 Bft)
19.08.2013 13:08 16,8 C 15,6 C 94 % 1016,0 hPa 0,0 l/m 0 min 0 min 0,0 UV-I 137 W/m 12,9 km/h (3 Bft)
19.08.2013 13:10 16,7 C 15,0 C 94 % 1016,0 hPa 0,0 l/m 0 min 0 min 0,0 UV-I 113 W/m 7,7 km/h (2 Bft)
19.08.2013 13:12 16,7 C 15,0 C 93 % 1016,1 hPa 0,0 l/m 0 min 0 min 0,0 UV-I 102 W/m 0,0 km/h (0 Bft)
19.08.2013 13:14 16,6 C 15,0 C 93 % 1016,1 hPa 0,0 l/m 0 min 2 min 0,0 UV-I 88 W/m 10,3 km/h (2 Bft)
19.08.2013 13:16 16,5 C 14,4 C 93 % 1016,2 hPa 0,4 l/m 0 min 2 min 0,0 UV-I 69 W/m 2,6 km/h (1 Bft)
19.08.2013 13:18 16,4 C 14,4 C 93 % 1016,3 hPa 0,6 l/m 0 min 2 min 0,0 UV-I 62 W/m 5,1 km/h (1 Bft)
19.08.2013 13:20 16,3 C 14,4 C 93 % 1016,2 hPa 0,2 l/m 0 min 2 min 0,0 UV-I 67 W/m 10,3 km/h (2 Bft)
19.08.2013 13:22 16,2 C 14,4 C 93 % 1016,1 hPa 0,0 l/m 0 min 2 min 0,0 UV-I 72 W/m 0,0 km/h (0 Bft)
19.08.2013 13:24 16,1 C 14,4 C 93 % 1016,2 hPa 0,0 l/m 0 min 2 min 0,0 UV-I 79 W/m 0,0 km/h (0 Bft)
19.08.2013 13:26 16,1 C 15,0 C 93 % 1016,3 hPa 0,2 l/m 0 min 2 min 0,0 UV-I 86 W/m 2,6 km/h (1 Bft)
19.08.2013 13:28 15,9 C 15,0 C 94 % 1016,2 hPa 0,2 l/m 0 min 2 min 0,0 UV-I 97 W/m 0,0 km/h (0 Bft)
19.08.2013 13:30 15,9 C 15,0 C 94 % 1016,1 hPa 0,0 l/m 0 min 2 min 0,0 UV-I 139 W/m 0,0 km/h (0 Bft)
19.08.2013 13:32 15,9 C 15,0 C 94 % 1016,0 hPa 0,2 l/m 0 min 2 min 0,8 UV-I 186 W/m 0,0 km/h (0 Bft)
19.08.2013 13:34 15,9 C 15,0 C 95 % 1016,1 hPa 0,0 l/m 0 min 2 min 1,1 UV-I 251 W/m 0,0 km/h (0 Bft)
19.08.2013 13:36 16,1 C 15,6 C 95 % 1016,0 hPa 0,0 l/m 0 min 2 min 1,6 UV-I 399 W/m 2,6 km/h (1 Bft)
19.08.2013 13:38 16,3 C 16,1 C 95 % 1016,1 hPa 0,0 l/m 2 min 0 min 1,8 UV-I 515 W/m 2,6 km/h (1 Bft)
19.08.2013 13:40 16,7 C 16,7 C 96 % 1016,1 hPa 0,0 l/m 2 min 0 min 1,8 UV-I 612 W/m 0,0 km/h (0 Bft)
19.08.2013 13:42 16,7 C 16,7 C 96 % 1016,1 hPa 0,0 l/m 0 min 2 min 1,6 UV-I 348 W/m 2,6 km/h (1 Bft)
19.08.2013 13:44 16,9 C 16,7 C 96 % 1016,2 hPa 0,0 l/m 0 min 2 min 1,8 UV-I 383 W/m 0,0 km/h (0 Bft)
19.08.2013 13:46 17,1 C 17,2 C 96 % 1016,2 hPa 0,0 l/m 2 min 2 min 1,9 UV-I 666 W/m 12,9 km/h (3 Bft)
19.08.2013 13:48 17,1 C 16,7 C 96 % 1016,2 hPa 0,0 l/m 0 min 2 min 1,5 UV-I 371 W/m 2,6 km/h (1 Bft)
19.08.2013 13:50 17,0 C 16,1 C 96 % 1016,2 hPa 0,0 l/m 0 min 2 min 1,3 UV-I 301 W/m 12,9 km/h (3 Bft)
19.08.2013 13:52 16,9 C 15,6 C 95 % 1016,2 hPa 0,0 l/m 0 min 2 min 1,3 UV-I 276 W/m 7,7 km/h (2 Bft)
19.08.2013 13:54 16,9 C 16,1 C 95 % 1016,2 hPa 0,0 l/m 0 min 2 min 1,4 UV-I 287 W/m 5,1 km/h (1 Bft)
19.08.2013 13:56 16,9 C 16,1 C 94 % 1016,2 hPa 0,0 l/m 0 min 2 min 1,7 UV-I 353 W/m 5,1 km/h (1 Bft)
19.08.2013 13:58 17,0 C 16,1 C 94 % 1016,3 hPa 0,0 l/m 0 min 2 min 1,8 UV-I 320 W/m 0,0 km/h (0 Bft)
19.08.2013 14:00 17,1 C 16,1 C 94 % 1016,3 hPa 0,0 l/m 0 min 2 min 3,0 UV-I 329 W/m 2,6 km/h (1 Bft)
19.08.2013 14:02 17,1 C 16,1 C 94 % 1016,4 hPa 0,0 l/m 2 min 0 min 2,9 UV-I 629 W/m 2,6 km/h (1 Bft)
19.08.2013 14:06 17,1 C 15,6 C 93 % 1016,3 hPa 0,0 l/m 0 min 0 min 1,6 UV-I 306 W/m 18,0 km/h (3 Bft)
19.08.2013 14:08 17,1 C 15,6 C 93 % 1016,3 hPa 0,0 l/m 0 min 0 min 1,6 UV-I 281 W/m 0,0 km/h (0 Bft)
19.08.2013 14:10 17,0 C 15,6 C 92 % 1016,3 hPa 0,0 l/m 0 min 0 min 1,7 UV-I 290 W/m 2,6 km/h (1 Bft)
19.08.2013 14:12 17,1 C 16,1 C 92 % 1016,3 hPa 0,0 l/m 0 min 0 min 1,5 UV-I 283 W/m 0,0 km/h (0 Bft)
19.08.2013 14:14 17,1 C 16,1 C 92 % 1016,3 hPa 0,0 l/m 0 min 0 min 1,4 UV-I 250 W/m 0,0 km/h (0 Bft)
19.08.2013 14:16 17,1 C 15,6 C 92 % 1016,4 hPa 0,0 l/m 0 min 0 min 1,4 UV-I 248 W/m 12,9 km/h (3 Bft)
19.08.2013 14:18 17,2 C 16,1 C 92 % 1016,4 hPa 0,0 l/m 0 min 0 min 1,3 UV-I 251 W/m 0,0 km/h (0 Bft)
19.08.2013 14:20 17,1 C 16,1 C 92 % 1016,4 hPa 0,0 l/m 0 min 0 min 1,2 UV-I 221 W/m 0,0 km/h (0 Bft)
19.08.2013 14:22 17,2 C 16,1 C 92 % 1016,5 hPa 0,0 l/m 0 min 0 min 1,1 UV-I 200 W/m 0,0 km/h (0 Bft)
19.08.2013 14:24 17,2 C 16,1 C 93 % 1016,4 hPa 0,0 l/m 0 min 0 min 1,1 UV-I 199 W/m 2,6 km/h (1 Bft)
19.08.2013 14:26 17,2 C 16,1 C 93 % 1016,4 hPa 0,0 l/m 0 min 0 min 1,1 UV-I 209 W/m 5,1 km/h (1 Bft)
19.08.2013 14:28 17,2 C 16,1 C 92 % 1016,5 hPa 0,0 l/m 0 min 0 min 1,1 UV-I 211 W/m 0,0 km/h (0 Bft)
19.08.2013 14:30 17,2 C 16,1 C 92 % 1016,4 hPa 0,0 l/m 0 min 0 min 1,1 UV-I 209 W/m 5,1 km/h (1 Bft)
19.08.2013 14:32 17,2 C 16,1 C 92 % 1016,4 hPa 0,0 l/m 0 min 0 min 1,1 UV-I 206 W/m 0,0 km/h (0 Bft)
19.08.2013 14:34 17,2 C 16,1 C 92 % 1016,5 hPa 0,0 l/m 0 min 0 min 1,0 UV-I 200 W/m 0,0 km/h (0 Bft)
19.08.2013 14:36 17,2 C 16,1 C 92 % 1016,5 hPa 0,0 l/m 0 min 0 min 1,0 UV-I 199 W/m 2,6 km/h (1 Bft)
19.08.2013 14:38 17,1 C 16,1 C 92 % 1016,6 hPa 0,0 l/m 0 min 0 min 1,0 UV-I 197 W/m 0,0 km/h (0 Bft)
19.08.2013 14:40 17,1 C 16,1 C 92 % 1016,6 hPa 0,0 l/m 0 min 0 min 0,9 UV-I 193 W/m 0,0 km/h (0 Bft)
19.08.2013 14:42 17,1 C 16,1 C 92 % 1016,7 hPa 0,0 l/m 0 min 0 min 0,9 UV-I 192 W/m 0,0 km/h (0 Bft)
19.08.2013 14:44 17,1 C 16,1 C 92 % 1016,8 hPa 0,0 l/m 0 min 0 min 0,9 UV-I 188 W/m 10,3 km/h (2 Bft)
19.08.2013 14:46 17,2 C 16,1 C 92 % 1016,9 hPa 0,0 l/m 0 min 0 min 0,9 UV-I 186 W/m 0,0 km/h (0 Bft)
19.08.2013 14:48 17,2 C 16,1 C 92 % 1017,1 hPa 0,0 l/m 0 min 0 min 0,9 UV-I 186 W/m 0,0 km/h (0 Bft)
19.08.2013 14:50 17,2 C 16,1 C 93 % 1017,1 hPa 0,0 l/m 0 min 0 min 0,9 UV-I 195 W/m 12,9 km/h (3 Bft)
19.08.2013 14:52 17,1 C 16,1 C 92 % 1017,1 hPa 0,0 l/m 0 min 0 min 0,9 UV-I 209 W/m 7,7 km/h (2 Bft)
19.08.2013 14:54 17,2 C 16,1 C 93 % 1017,1 hPa 0,0 l/m 0 min 0 min 0,9 UV-I 213 W/m 12,9 km/h (3 Bft)
19.08.2013 14:56 17,2 C 16,1 C 92 % 1017,2 hPa 0,0 l/m 0 min 0 min 0,9 UV-I 220 W/m 10,3 km/h (2 Bft)
19.08.2013 14:58 17,2 C 16,1 C 92 % 1017,2 hPa 0,0 l/m 0 min 0 min 1,0 UV-I 221 W/m 7,7 km/h (2 Bft)
19.08.2013 15:00 17,3 C 16,7 C 93 % 1017,2 hPa 0,0 l/m 0 min 0 min 1,0 UV-I 225 W/m 0,0 km/h (0 Bft)
19.08.2013 15:02 17,4 C 16,7 C 93 % 1017,1 hPa 0,0 l/m 0 min 0 min 1,0 UV-I 230 W/m 2,6 km/h (1 Bft)
19.08.2013 15:06 17,4 C 16,7 C 92 % 1017,1 hPa 0,0 l/m 0 min 0 min 1,2 UV-I 244 W/m 12,9 km/h (3 Bft)
19.08.2013 15:08 17,4 C 16,1 C 92 % 1017,1 hPa 0,0 l/m 0 min 0 min 1,2 UV-I 265 W/m 7,7 km/h (2 Bft)
19.08.2013 15:10 17,6 C 16,7 C 92 % 1017,2 hPa 0,0 l/m 0 min 0 min 1,4 UV-I 304 W/m 5,1 km/h (1 Bft)
19.08.2013 15:12 17,7 C 16,7 C 91 % 1017,2 hPa 0,0 l/m 0 min 0 min 1,6 UV-I 345 W/m 5,1 km/h (1 Bft)
19.08.2013 15:14 17,8 C 16,7 C 91 % 1017,2 hPa 0,0 l/m 2 min 0 min 1,7 UV-I 399 W/m 12,9 km/h (3 Bft)
19.08.2013 15:16 17,9 C 16,7 C 91 % 1017,2 hPa 0,0 l/m 0 min 0 min 1,8 UV-I 350 W/m 15,4 km/h (3 Bft)
19.08.2013 15:18 18,1 C 17,2 C 90 % 1017,2 hPa 0,0 l/m 2 min 0 min 2,1 UV-I 476 W/m 10,3 km/h (2 Bft)
19.08.2013 15:20 18,3 C 17,2 C 90 % 1017,3 hPa 0,0 l/m 2 min 0 min 2,2 UV-I 490 W/m 0,0 km/h (0 Bft)
19.08.2013 15:22 18,4 C 17,8 C 90 % 1017,3 hPa 0,0 l/m 2 min 0 min 2,3 UV-I 489 W/m 12,9 km/h (3 Bft)
19.08.2013 15:24 18,6 C 17,2 C 88 % 1017,4 hPa 0,0 l/m 2 min 0 min 2,3 UV-I 529 W/m 12,9 km/h (3 Bft)
19.08.2013 15:26 18,7 C 17,8 C 88 % 1017,5 hPa 0,0 l/m 2 min 0 min 2,4 UV-I 561 W/m 10,3 km/h (2 Bft)
19.08.2013 15:28 18,8 C 17,8 C 88 % 1017,4 hPa 0,0 l/m 2 min 0 min 2,5 UV-I 578 W/m 15,4 km/h (3 Bft)
19.08.2013 15:30 18,8 C 17,8 C 87 % 1017,4 hPa 0,0 l/m 2 min 0 min 2,5 UV-I 580 W/m 15,4 km/h (3 Bft)
19.08.2013 15:32 19,0 C 17,8 C 88 % 1017,4 hPa 0,0 l/m 2 min 0 min 2,6 UV-I 601 W/m 2,6 km/h (1 Bft)
19.08.2013 15:34 19,2 C 18,3 C 87 % 1017,5 hPa 0,0 l/m 2 min 0 min 2,6 UV-I 629 W/m 10,3 km/h (2 Bft)
19.08.2013 15:36 19,3 C 18,3 C 86 % 1017,6 hPa 0,0 l/m 2 min 0 min 2,7 UV-I 642 W/m 10,3 km/h (2 Bft)
19.08.2013 15:38 19,3 C 18,3 C 86 % 1017,7 hPa 0,0 l/m 2 min 0 min 2,8 UV-I 687 W/m 12,9 km/h (3 Bft)
19.08.2013 15:40 19,5 C 18,3 C 84 % 1017,6 hPa 0,0 l/m 2 min 0 min 2,9 UV-I 724 W/m 10,3 km/h (2 Bft)
19.08.2013 15:42 19,7 C 18,9 C 85 % 1017,8 hPa 0,0 l/m 2 min 0 min 2,9 UV-I 733 W/m 15,4 km/h (3 Bft)
19.08.2013 15:44 19,7 C 18,9 C 84 % 1017,7 hPa 0,0 l/m 2 min 0 min 2,9 UV-I 729 W/m 15,4 km/h (3 Bft)
19.08.2013 15:46 19,9 C 18,9 C 84 % 1017,8 hPa 0,0 l/m 2 min 0 min 2,8 UV-I 708 W/m 12,9 km/h (3 Bft)
19.08.2013 15:48 19,9 C 18,9 C 83 % 1017,7 hPa 0,0 l/m 2 min 0 min 2,7 UV-I 673 W/m 15,4 km/h (3 Bft)
19.08.2013 15:50 19,8 C 18,9 C 82 % 1017,7 hPa 0,0 l/m 2 min 0 min 2,6 UV-I 670 W/m 18,0 km/h (3 Bft)
19.08.2013 15:52 19,9 C 19,4 C 82 % 1017,8 hPa 0,0 l/m 2 min 0 min 2,4 UV-I 608 W/m 7,7 km/h (2 Bft)
19.08.2013 15:54 19,9 C 18,9 C 81 % 1017,8 hPa 0,0 l/m 2 min 0 min 2,0 UV-I 691 W/m 12,9 km/h (3 Bft)
19.08.2013 15:56 19,7 C 18,9 C 80 % 1017,9 hPa 0,0 l/m 0 min 0 min 2,0 UV-I 290 W/m 7,7 km/h (2 Bft)
19.08.2013 15:58 19,6 C 18,3 C 81 % 1017,8 hPa 0,0 l/m 0 min 0 min 2,2 UV-I 290 W/m 15,4 km/h (3 Bft)
19.08.2013 16:00 19,5 C 18,3 C 82 % 1017,8 hPa 0,0 l/m 0 min 0 min 2,2 UV-I 290 W/m 15,4 km/h (3 Bft)
19.08.2013 16:02 19,4 C 18,9 C 83 % 1017,9 hPa 0,0 l/m 2 min 0 min 2,2 UV-I 548 W/m 7,7 km/h (2 Bft)
19.08.2013 16:06 19,6 C 18,9 C 82 % 1017,7 hPa 0,0 l/m 2 min 0 min 2,2 UV-I 584 W/m 10,3 km/h (2 Bft)
19.08.2013 16:08 19,6 C 18,9 C 81 % 1017,8 hPa 0,0 l/m 2 min 0 min 1,7 UV-I 582 W/m 15,4 km/h (3 Bft)
19.08.2013 16:10 19,7 C 18,9 C 81 % 1017,8 hPa 0,0 l/m 2 min 0 min 2,0 UV-I 480 W/m 5,1 km/h (1 Bft)
19.08.2013 16:12 19,8 C 19,4 C 82 % 1017,8 hPa 0,0 l/m 2 min 0 min 2,0 UV-I 480 W/m 7,7 km/h (2 Bft)
19.08.2013 16:14 19,8 C 19,4 C 81 % 1018,0 hPa 0,0 l/m 2 min 0 min 1,4 UV-I 394 W/m 10,3 km/h (2 Bft)
19.08.2013 16:16 19,7 C 19,4 C 80 % 1018,1 hPa 0,0 l/m 2 min 0 min 1,4 UV-I 381 W/m 18,0 km/h (3 Bft)
19.08.2013 16:18 19,6 C 19,4 C 81 % 1018,2 hPa 0,0 l/m 2 min 0 min 1,3 UV-I 374 W/m 7,7 km/h (2 Bft)
19.08.2013 16:20 19,7 C 19,4 C 81 % 1018,2 hPa 0,0 l/m 2 min 0 min 1,1 UV-I 348 W/m 18,0 km/h (3 Bft)
19.08.2013 16:22 19,8 C 19,4 C 81 % 1018,3 hPa 0,0 l/m 0 min 0 min 1,1 UV-I 338 W/m 10,3 km/h (2 Bft)
19.08.2013 16:24 19,8 C 19,4 C 81 % 1018,3 hPa 0,0 l/m 0 min 0 min 0,8 UV-I 283 W/m 10,3 km/h (2 Bft)
19.08.2013 16:26 19,8 C 19,4 C 81 % 1018,3 hPa 0,0 l/m 0 min 0 min 0,0 UV-I 137 W/m 7,7 km/h (2 Bft)
19.08.2013 16:28 19,7 C 18,9 C 81 % 1018,5 hPa 0,0 l/m 0 min 0 min 0,0 UV-I 74 W/m 5,1 km/h (1 Bft)
19.08.2013 16:30 19,5 C 18,3 C 81 % 1018,5 hPa 0,2 l/m 0 min 0 min 0,0 UV-I 19 W/m 28,3 km/h (4 Bft)
19.08.2013 16:32 19,2 C 17,2 C 80 % 1018,5 hPa 0,0 l/m 0 min 2 min 0,0 UV-I 11 W/m 15,4 km/h (3 Bft)
19.08.2013 16:34 18,8 C 14,4 C 78 % 1018,6 hPa 0,0 l/m 0 min 2 min 0,0 UV-I 11 W/m 20,6 km/h (4 Bft)
19.08.2013 16:36 18,2 C 13,3 C 80 % 1019,0 hPa 1,4 l/m 0 min 2 min 0,0 UV-I 12 W/m 25,7 km/h (4 Bft)
19.08.2013 16:38 17,4 C 11,7 C 77 % 1019,0 hPa 2,6 l/m 0 min 2 min 0,0 UV-I 14 W/m 25,7 km/h (4 Bft)
19.08.2013 16:40 16,6 C 11,1 C 76 % 1018,8 hPa 0,2 l/m 0 min 2 min 0,0 UV-I 16 W/m 12,9 km/h (3 Bft)
19.08.2013 16:42 15,9 C 11,7 C 80 % 1018,8 hPa 0,2 l/m 0 min 2 min 0,0 UV-I 18 W/m 0,0 km/h (0 Bft)
19.08.2013 16:44 15,3 C 11,7 C 83 % 1018,6 hPa 0,2 l/m 0 min 2 min 0,0 UV-I 19 W/m 0,0 km/h (0 Bft)
19.08.2013 16:46 14,9 C 12,2 C 85 % 1018,5 hPa 0,2 l/m 0 min 2 min 0,0 UV-I 23 W/m 0,0 km/h (0 Bft)
19.08.2013 16:48 14,7 C 12,2 C 87 % 1018,5 hPa 0,2 l/m 0 min 2 min 0,0 UV-I 28 W/m 0,0 km/h (0 Bft)
19.08.2013 16:50 14,4 C 12,2 C 87 % 1018,6 hPa 0,2 l/m 0 min 2 min 0,0 UV-I 33 W/m 0,0 km/h (0 Bft)
19.08.2013 16:52 14,3 C 12,2 C 90 % 1018,8 hPa 0,0 l/m 0 min 2 min 0,0 UV-I 39 W/m 0,0 km/h (0 Bft)
19.08.2013 16:54 14,2 C 12,2 C 91 % 1018,8 hPa 0,0 l/m 0 min 2 min 0,0 UV-I 46 W/m 0,0 km/h (0 Bft)
19.08.2013 16:56 14,2 C 12,8 C 91 % 1018,9 hPa 0,2 l/m 0 min 2 min 0,0 UV-I 53 W/m 0,0 km/h (0 Bft)
19.08.2013 16:58 14,2 C 12,8 C 92 % 1018,9 hPa 0,0 l/m 0 min 2 min 0,0 UV-I 60 W/m 0,0 km/h (0 Bft)
19.08.2013 17:00 14,2 C 12,8 C 93 % 1018,9 hPa 0,0 l/m 0 min 2 min 0,0 UV-I 67 W/m 2,6 km/h (1 Bft)
19.08.2013 17:02 14,2 C 12,8 C 93 % 1018,8 hPa 0,0 l/m 0 min 2 min 0,0 UV-I 69 W/m 0,0 km/h (0 Bft)
19.08.2013 17:06 14,2 C 13,3 C 94 % 1018,9 hPa 0,0 l/m 0 min 0 min 0,0 UV-I 56 W/m 0,0 km/h (0 Bft)
19.08.2013 17:08 14,2 C 13,3 C 94 % 1019,0 hPa 0,0 l/m 0 min 0 min 0,0 UV-I 42 W/m 0,0 km/h (0 Bft)
19.08.2013 17:10 14,2 C 13,3 C 94 % 1019,1 hPa 0,0 l/m 0 min 0 min 0,0 UV-I 33 W/m 0,0 km/h (0 Bft)
19.08.2013 17:12 14,3 C 13,3 C 94 % 1019,1 hPa 0,0 l/m 0 min 0 min 0,0 UV-I 32 W/m 0,0 km/h (0 Bft)
19.08.2013 17:14 14,4 C 13,3 C 95 % 1019,2 hPa 0,0 l/m 0 min 0 min 0,0 UV-I 30 W/m 0,0 km/h (0 Bft)
19.08.2013 17:16 14,4 C 13,3 C 95 % 1019,2 hPa 0,0 l/m 0 min 0 min 0,0 UV-I 30 W/m 0,0 km/h (0 Bft)
19.08.2013 17:18 14,5 C 13,3 C 95 % 1019,4 hPa 0,0 l/m 0 min 2 min 0,0 UV-I 28 W/m 5,1 km/h (1 Bft)
19.08.2013 17:20 14,5 C 13,3 C 95 % 1019,5 hPa 0,0 l/m 0 min 2 min 0,0 UV-I 25 W/m 12,9 km/h (3 Bft)
19.08.2013 17:22 14,6 C 13,3 C 96 % 1019,5 hPa 0,2 l/m 0 min 2 min 0,0 UV-I 25 W/m 2,6 km/h (1 Bft)
19.08.2013 17:24 14,6 C 13,3 C 96 % 1019,6 hPa 0,0 l/m 0 min 2 min 0,0 UV-I 23 W/m 5,1 km/h (1 Bft)
19.08.2013 17:26 14,6 C 13,3 C 96 % 1019,6 hPa 0,2 l/m 0 min 2 min 0,0 UV-I 25 W/m 7,7 km/h (2 Bft)
19.08.2013 17:28 14,5 C 13,3 C 96 % 1019,6 hPa 0,2 l/m 0 min 2 min 0,0 UV-I 28 W/m 5,1 km/h (1 Bft)
19.08.2013 17:30 14,5 C 12,8 C 96 % 1019,6 hPa 0,0 l/m 0 min 2 min 0,0 UV-I 33 W/m 5,1 km/h (1 Bft)
19.08.2013 17:32 14,5 C 13,3 C 95 % 1019,6 hPa 0,4 l/m 0 min 2 min 0,0 UV-I 37 W/m 2,6 km/h (1 Bft)
19.08.2013 17:34 14,5 C 13,3 C 95 % 1019,5 hPa 0,0 l/m 0 min 2 min 0,0 UV-I 53 W/m 0,0 km/h (0 Bft)
19.08.2013 17:36 14,4 C 13,3 C 95 % 1019,5 hPa 0,0 l/m 0 min 2 min 0,0 UV-I 81 W/m 0,0 km/h (0 Bft)
19.08.2013 17:38 14,5 C 13,3 C 95 % 1019,5 hPa 0,0 l/m 0 min 0 min 0,0 UV-I 114 W/m 0,0 km/h (0 Bft)
19.08.2013 17:40 14,5 C 13,3 C 95 % 1019,5 hPa 0,0 l/m 0 min 2 min 0,0 UV-I 137 W/m 0,0 km/h (0 Bft)
19.08.2013 17:42 14,6 C 13,9 C 96 % 1019,4 hPa 0,0 l/m 0 min 2 min 0,0 UV-I 213 W/m 0,0 km/h (0 Bft)
19.08.2013 17:44 14,7 C 13,9 C 96 % 1019,5 hPa 0,0 l/m 0 min 2 min 0,0 UV-I 179 W/m 0,0 km/h (0 Bft)
19.08.2013 17:46 14,7 C 13,9 C 96 % 1019,5 hPa 0,0 l/m 0 min 2 min 0,0 UV-I 142 W/m 0,0 km/h (0 Bft)
19.08.2013 17:48 14,9 C 13,9 C 96 % 1019,5 hPa 0,0 l/m 0 min 0 min 0,0 UV-I 123 W/m 0,0 km/h (0 Bft)
19.08.2013 17:50 15,1 C 14,4 C 96 % 1019,5 hPa 0,0 l/m 0 min 0 min 0,0 UV-I 139 W/m 0,0 km/h (0 Bft)
19.08.2013 17:52 15,3 C 14,4 C 96 % 1019,5 hPa 0,0 l/m 0 min 0 min 0,0 UV-I 178 W/m 0,0 km/h (0 Bft)
19.08.2013 17:54 15,4 C 14,4 C 96 % 1019,6 hPa 0,0 l/m 0 min 0 min 0,0 UV-I 195 W/m 0,0 km/h (0 Bft)
19.08.2013 17:56 15,4 C 14,4 C 96 % 1019,6 hPa 0,0 l/m 0 min 0 min 0,0 UV-I 200 W/m 0,0 km/h (0 Bft)
19.08.2013 17:58 15,5 C 14,4 C 96 % 1019,6 hPa 0,0 l/m 2 min 0 min 0,0 UV-I 432 W/m 0,0 km/h (0 Bft)
19.08.2013 18:00 15,6 C 14,4 C 95 % 1019,6 hPa 0,0 l/m 2 min 0 min 0,0 UV-I 323 W/m 0,0 km/h (0 Bft)
19.08.2013 18:02 15,8 C 14,4 C 95 % 1019,6 hPa 0,0 l/m 2 min 0 min 0,0 UV-I 250 W/m 0,0 km/h (0 Bft)
19.08.2013 18:06 16,1 C 14,4 C 95 % 1019,6 hPa 0,0 l/m 0 min 0 min 0,0 UV-I 139 W/m 0,0 km/h (0 Bft)
19.08.2013 18:08 16,1 C 14,4 C 94 % 1019,6 hPa 0,0 l/m 0 min 0 min 0,0 UV-I 200 W/m 0,0 km/h (0 Bft)
19.08.2013 18:10 16,1 C 14,4 C 94 % 1019,7 hPa 0,0 l/m 0 min 0 min 0,0 UV-I 146 W/m 2,6 km/h (1 Bft)
19.08.2013 18:12 16,2 C 15,0 C 94 % 1019,7 hPa 0,0 l/m 0 min 0 min 0,0 UV-I 172 W/m 0,0 km/h (0 Bft)
19.08.2013 18:14 16,3 C 15,0 C 94 % 1019,7 hPa 0,0 l/m 2 min 0 min 0,0 UV-I 260 W/m 0,0 km/h (0 Bft)
19.08.2013 18:16 16,5 C 15,0 C 94 % 1019,8 hPa 0,0 l/m 2 min 0 min 0,0 UV-I 355 W/m 0,0 km/h (0 Bft)
19.08.2013 18:18 16,6 C 15,0 C 94 % 1019,8 hPa 0,0 l/m 2 min 0 min 0,0 UV-I 311 W/m 7,7 km/h (2 Bft)
19.08.2013 18:20 16,7 C 15,0 C 94 % 1019,8 hPa 0,0 l/m 2 min 0 min 0,0 UV-I 207 W/m 0,0 km/h (0 Bft)
19.08.2013 18:22 16,9 C 15,0 C 94 % 1019,9 hPa 0,0 l/m 0 min 0 min 0,0 UV-I 93 W/m 5,1 km/h (1 Bft)
19.08.2013 18:24 16,9 C 15,0 C 93 % 1019,8 hPa 0,0 l/m 0 min 0 min 0,0 UV-I 86 W/m 0,0 km/h (0 Bft)
19.08.2013 18:26 17,0 C 15,0 C 93 % 1019,9 hPa 0,0 l/m 0 min 0 min 0,0 UV-I 148 W/m 2,6 km/h (1 Bft)
19.08.2013 18:28 17,0 C 15,0 C 93 % 1019,9 hPa 0,0 l/m 0 min 0 min 0,0 UV-I 174 W/m 0,0 km/h (0 Bft)
19.08.2013 18:30 17,0 C 15,0 C 93 % 1019,9 hPa 0,0 l/m 0 min 0 min 0,0 UV-I 127 W/m 0,0 km/h (0 Bft)
19.08.2013 18:32 17,0 C 15,0 C 93 % 1019,9 hPa 0,0 l/m 0 min 0 min 0,0 UV-I 98 W/m 0,0 km/h (0 Bft)
19.08.2013 18:34 17,0 C 15,0 C 93 % 1020,0 hPa 0,0 l/m 0 min 0 min 0,0 UV-I 90 W/m 0,0 km/h (0 Bft)
19.08.2013 18:36 17,1 C 15,6 C 93 % 1019,9 hPa 0,0 l/m 0 min 0 min 0,0 UV-I 83 W/m 0,0 km/h (0 Bft)
19.08.2013 18:38 17,2 C 15,6 C 93 % 1019,9 hPa 0,0 l/m 0 min 0 min 0,0 UV-I 144 W/m 0,0 km/h (0 Bft)
19.08.2013 18:40 17,3 C 15,6 C 93 % 1019,9 hPa 0,0 l/m 0 min 0 min 0,0 UV-I 100 W/m 0,0 km/h (0 Bft)
19.08.2013 18:42 17,3 C 15,6 C 93 % 1020,0 hPa 0,0 l/m 0 min 0 min 0,0 UV-I 104 W/m 0,0 km/h (0 Bft)
19.08.2013 18:44 17,5 C 15,6 C 94 % 1020,0 hPa 0,0 l/m 0 min 0 min 0,0 UV-I 116 W/m 0,0 km/h (0 Bft)
19.08.2013 18:46 17,6 C 15,6 C 93 % 1020,0 hPa 0,0 l/m 0 min 0 min 0,0 UV-I 134 W/m 2,6 km/h (1 Bft)
19.08.2013 18:48 17,8 C 16,1 C 93 % 1020,0 hPa 0,0 l/m 0 min 0 min 0,0 UV-I 142 W/m 0,0 km/h (0 Bft)
19.08.2013 18:50 17,8 C 16,1 C 93 % 1020,0 hPa 0,0 l/m 0 min 0 min 0,0 UV-I 135 W/m 0,0 km/h (0 Bft)
19.08.2013 18:52 17,9 C 16,1 C 93 % 1020,1 hPa 0,0 l/m 0 min 0 min 0,0 UV-I 118 W/m 0,0 km/h (0 Bft)
19.08.2013 18:54 17,9 C 16,1 C 92 % 1020,1 hPa 0,0 l/m 0 min 0 min 0,0 UV-I 84 W/m 0,0 km/h (0 Bft)
19.08.2013 18:56 17,9 C 16,1 C 92 % 1020,1 hPa 0,0 l/m 0 min 0 min 0,0 UV-I 67 W/m 0,0 km/h (0 Bft)
19.08.2013 18:58 17,9 C 15,6 C 91 % 1020,2 hPa 0,0 l/m 0 min 0 min 0,0 UV-I 62 W/m 0,0 km/h (0 Bft)
19.08.2013 19:00 17,8 C 15,6 C 91 % 1020,2 hPa 0,0 l/m 0 min 0 min 0,0 UV-I 62 W/m 0,0 km/h (0 Bft)
19.08.2013 19:02 17,8 C 15,6 C 90 % 1020,2 hPa 0,0 l/m 0 min 0 min 0,0 UV-I 69 W/m 0,0 km/h (0 Bft)
19.08.2013 19:06 17,8 C 15,6 C 90 % 1020,3 hPa 0,0 l/m 0 min 0 min 0,0 UV-I 127 W/m 0,0 km/h (0 Bft)
19.08.2013 19:08 18,0 C 15,6 C 90 % 1020,3 hPa 0,0 l/m 2 min 0 min 0,0 UV-I 149 W/m 0,0 km/h (0 Bft)
19.08.2013 19:10 18,2 C 16,1 C 90 % 1020,3 hPa 0,0 l/m 0 min 0 min 0,0 UV-I 123 W/m 0,0 km/h (0 Bft)
19.08.2013 19:12 18,3 C 16,1 C 91 % 1020,3 hPa 0,0 l/m 0 min 0 min 0,0 UV-I 107 W/m 0,0 km/h (0 Bft)
19.08.2013 19:14 18,2 C 16,1 C 90 % 1020,4 hPa 0,0 l/m 0 min 0 min 0,0 UV-I 77 W/m 5,1 km/h (1 Bft)
19.08.2013 19:16 18,3 C 15,6 C 88 % 1020,3 hPa 0,0 l/m 0 min 0 min 0,0 UV-I 62 W/m 2,6 km/h (1 Bft)
19.08.2013 19:18 18,3 C 15,6 C 89 % 1020,3 hPa 0,0 l/m 0 min 0 min 0,0 UV-I 54 W/m 0,0 km/h (0 Bft)
19.08.2013 19:20 18,2 C 15,6 C 89 % 1020,4 hPa 0,0 l/m 0 min 0 min 0,0 UV-I 51 W/m 0,0 km/h (0 Bft)
19.08.2013 19:22 18,2 C 15,6 C 88 % 1020,3 hPa 0,0 l/m 0 min 0 min 0,0 UV-I 49 W/m 0,0 km/h (0 Bft)
19.08.2013 19:24 18,2 C 15,6 C 87 % 1020,4 hPa 0,0 l/m 0 min 0 min 0,0 UV-I 46 W/m 0,0 km/h (0 Bft)
19.08.2013 19:26 18,2 C 15,0 C 87 % 1020,4 hPa 0,0 l/m 0 min 0 min 0,0 UV-I 40 W/m 2,6 km/h (1 Bft)
19.08.2013 19:28 18,2 C 15,0 C 87 % 1020,4 hPa 0,0 l/m 0 min 0 min 0,0 UV-I 40 W/m 0,0 km/h (0 Bft)
19.08.2013 19:30 18,2 C 15,0 C 86 % 1020,5 hPa 0,0 l/m 0 min 0 min 0,0 UV-I 39 W/m 0,0 km/h (0 Bft)
19.08.2013 19:32 18,2 C 15,0 C 87 % 1020,5 hPa 0,0 l/m 0 min 0 min 0,0 UV-I 37 W/m 0,0 km/h (0 Bft)
19.08.2013 19:34 18,1 C 15,0 C 87 % 1020,6 hPa 0,0 l/m 0 min 0 min 0,0 UV-I 37 W/m 2,6 km/h (1 Bft)
19.08.2013 19:36 18,1 C 15,0 C 88 % 1020,5 hPa 0,0 l/m 0 min 0 min 0,0 UV-I 35 W/m 0,0 km/h (0 Bft)
19.08.2013 19:38 17,9 C 15,0 C 89 % 1020,6 hPa 0,0 l/m 0 min 0 min 0,0 UV-I 33 W/m 0,0 km/h (0 Bft)
19.08.2013 19:40 17,9 C 15,0 C 89 % 1020,6 hPa 0,0 l/m 0 min 0 min 0,0 UV-I 32 W/m 0,0 km/h (0 Bft)
19.08.2013 19:42 17,8 C 15,0 C 90 % 1020,7 hPa 0,0 l/m 0 min 0 min 0,0 UV-I 32 W/m 0,0 km/h (0 Bft)
19.08.2013 19:44 17,8 C 15,0 C 90 % 1020,8 hPa 0,0 l/m 0 min 0 min 0,0 UV-I 30 W/m 0,0 km/h (0 Bft)
19.08.2013 19:46 17,7 C 15,0 C 91 % 1020,8 hPa 0,0 l/m 0 min 0 min 0,0 UV-I 30 W/m 2,6 km/h (1 Bft)
19.08.2013 19:48 17,7 C 15,0 C 91 % 1020,9 hPa 0,0 l/m 0 min 0 min 0,0 UV-I 30 W/m 0,0 km/h (0 Bft)
19.08.2013 19:50 17,6 C 15,0 C 90 % 1020,9 hPa 0,0 l/m 0 min 0 min 0,0 UV-I 28 W/m 0,0 km/h (0 Bft)
19.08.2013 19:52 17,6 C 15,0 C 89 % 1021,0 hPa 0,0 l/m 0 min 0 min 0,0 UV-I 28 W/m 0,0 km/h (0 Bft)
19.08.2013 19:54 17,4 C 15,0 C 89 % 1021,0 hPa 0,0 l/m 0 min 0 min 0,0 UV-I 28 W/m 0,0 km/h (0 Bft)
19.08.2013 19:56 17,4 C 14,4 C 88 % 1021,0 hPa 0,0 l/m 0 min 0 min 0,0 UV-I 28 W/m 0,0 km/h (0 Bft)
19.08.2013 19:58 17,3 C 14,4 C 87 % 1021,0 hPa 0,0 l/m 0 min 0 min 0,0 UV-I 30 W/m 0,0 km/h (0 Bft)
19.08.2013 20:00 17,2 C 14,4 C 87 % 1021,0 hPa 0,0 l/m 0 min 0 min 0,0 UV-I 30 W/m 0,0 km/h (0 Bft)
19.08.2013 20:02 17,1 C 14,4 C 87 % 1021,1 hPa 0,0 l/m 0 min 0 min 0,0 UV-I 30 W/m 2,6 km/h (1 Bft)
19.08.2013 20:06 16,8 C 13,9 C 88 % 1021,2 hPa 0,0 l/m 0 min 0 min 0,0 UV-I 26 W/m 0,0 km/h (0 Bft)
19.08.2013 20:08 16,7 C 13,9 C 88 % 1021,2 hPa 0,0 l/m 0 min 0 min 0,0 UV-I 26 W/m 0,0 km/h (0 Bft)
19.08.2013 20:10 16,6 C 13,9 C 88 % 1021,2 hPa 0,0 l/m 0 min 0 min 0,0 UV-I 28 W/m 0,0 km/h (0 Bft)
19.08.2013 20:12 16,5 C 13,9 C 89 % 1021,4 hPa 0,0 l/m 0 min 0 min 0,0 UV-I 30 W/m 0,0 km/h (0 Bft)
19.08.2013 20:14 16,4 C 13,9 C 88 % 1021,4 hPa 0,0 l/m 0 min 0 min 0,0 UV-I 26 W/m 0,0 km/h (0 Bft)
19.08.2013 20:16 16,3 C 13,9 C 89 % 1021,4 hPa 0,0 l/m 0 min 0 min 0,0 UV-I 23 W/m 0,0 km/h (0 Bft)
19.08.2013 20:18 16,2 C 13,9 C 89 % 1021,5 hPa 0,0 l/m 0 min 0 min 0,0 UV-I 23 W/m 0,0 km/h (0 Bft)
19.08.2013 20:20 16,1 C 13,9 C 90 % 1021,5 hPa 0,0 l/m 0 min 0 min 0,0 UV-I 21 W/m 0,0 km/h (0 Bft)
19.08.2013 20:22 16,1 C 13,3 C 90 % 1021,5 hPa 0,0 l/m 0 min 0 min 0,0 UV-I 21 W/m 0,0 km/h (0 Bft)
19.08.2013 20:24 16,0 C 13,3 C 90 % 1021,7 hPa 0,0 l/m 0 min 0 min 0,0 UV-I 21 W/m 0,0 km/h (0 Bft)
19.08.2013 20:26 16,0 C 13,3 C 90 % 1021,6 hPa 0,0 l/m 0 min 0 min 0,0 UV-I 18 W/m 0,0 km/h (0 Bft)
19.08.2013 20:28 15,9 C 13,3 C 90 % 1021,7 hPa 0,0 l/m 0 min 0 min 0,0 UV-I 16 W/m 0,0 km/h (0 Bft)
19.08.2013 20:30 15,8 C 13,3 C 90 % 1021,8 hPa 0,0 l/m 0 min 0 min 0,0 UV-I 14 W/m 0,0 km/h (0 Bft)
19.08.2013 20:32 15,8 C 13,3 C 90 % 1021,7 hPa 0,0 l/m 0 min 0 min 0,0 UV-I 12 W/m 0,0 km/h (0 Bft)
19.08.2013 20:34 15,7 C 13,3 C 90 % 1021,8 hPa 0,0 l/m 0 min 0 min 0,0 UV-I 11 W/m 0,0 km/h (0 Bft)
19.08.2013 20:36 15,6 C 12,8 C 90 % 1021,8 hPa 0,0 l/m 0 min 0 min 0,0 UV-I 9 W/m 0,0 km/h (0 Bft)
19.08.2013 20:38 15,6 C 12,8 C 90 % 1021,8 hPa 0,0 l/m 0 min 0 min 0,0 UV-I 7 W/m 0,0 km/h (0 Bft)
19.08.2013 20:40 15,6 C 12,8 C 90 % 1021,9 hPa 0,0 l/m 0 min 0 min 0,0 UV-I 7 W/m 0,0 km/h (0 Bft)
19.08.2013 20:42 15,5 C 12,8 C 90 % 1021,9 hPa 0,0 l/m 0 min 0 min 0,0 UV-I 7 W/m 0,0 km/h (0 Bft)
19.08.2013 20:44 15,4 C 12,8 C 90 % 1021,9 hPa 0,0 l/m 0 min 0 min 0,0 UV-I 5 W/m 0,0 km/h (0 Bft)
19.08.2013 20:46 15,3 C 12,8 C 90 % 1021,9 hPa 0,0 l/m 0 min 0 min 0,0 UV-I 5 W/m 0,0 km/h (0 Bft)
19.08.2013 20:48 15,2 C 12,8 C 90 % 1022,0 hPa 0,0 l/m 0 min 0 min 0,0 UV-I 5 W/m 0,0 km/h (0 Bft)
19.08.2013 20:50 15,2 C 12,8 C 90 % 1021,9 hPa 0,0 l/m 0 min 0 min 0,0 UV-I 0 W/m 0,0 km/h (0 Bft)
19.08.2013 20:52 15,1 C 12,8 C 90 % 1021,9 hPa 0,0 l/m 0 min 0 min 0,0 UV-I 0 W/m 0,0 km/h (0 Bft)
19.08.2013 20:54 15,0 C 12,2 C 90 % 1022,1 hPa 0,0 l/m 0 min 0 min 0,0 UV-I 0 W/m 0,0 km/h (0 Bft)
19.08.2013 20:56 14,9 C 12,2 C 90 % 1022,1 hPa 0,0 l/m 0 min 0 min 0,0 UV-I 0 W/m 0,0 km/h (0 Bft)
19.08.2013 20:58 14,9 C 12,2 C 90 % 1022,1 hPa 0,0 l/m 0 min 0 min 0,0 UV-I 0 W/m 0,0 km/h (0 Bft)
19.08.2013 21:00 14,8 C 12,2 C 90 % 1022,2 hPa 0,0 l/m 0 min 0 min 0,0 UV-I 0 W/m 0,0 km/h (0 Bft)
19.08.2013 21:02 14,7 C 12,2 C 90 % 1022,2 hPa 0,0 l/m 0 min 0 min 0,0 UV-I 0 W/m 0,0 km/h (0 Bft)
19.08.2013 21:06 14,6 C 12,2 C 90 % 1022,4 hPa 0,0 l/m 0 min 0 min 0,0 UV-I 0 W/m 0,0 km/h (0 Bft)
19.08.2013 21:08 14,4 C 12,2 C 90 % 1022,4 hPa 0,0 l/m 0 min 0 min 0,0 UV-I 0 W/m 0,0 km/h (0 Bft)
19.08.2013 21:10 14,4 C 12,2 C 91 % 1022,4 hPa 0,0 l/m 0 min 0 min 0,0 UV-I 0 W/m 0,0 km/h (0 Bft)
19.08.2013 21:12 14,2 C 11,7 C 91 % 1022,5 hPa 0,0 l/m 0 min 0 min 0,0 UV-I 0 W/m 0,0 km/h (0 Bft)
19.08.2013 21:14 14,2 C 11,7 C 91 % 1022,6 hPa 0,0 l/m 0 min 0 min 0,0 UV-I 0 W/m 0,0 km/h (0 Bft)
19.08.2013 21:16 14,2 C 11,7 C 91 % 1022,6 hPa 0,0 l/m 0 min 0 min 0,0 UV-I 0 W/m 0,0 km/h (0 Bft)
19.08.2013 21:18 14,2 C 11,7 C 92 % 1022,6 hPa 0,0 l/m 0 min 0 min 0,0 UV-I 0 W/m 0,0 km/h (0 Bft)
19.08.2013 21:20 14,2 C 11,7 C 92 % 1022,6 hPa 0,0 l/m 0 min 0 min 0,0 UV-I 0 W/m 0,0 km/h (0 Bft)
19.08.2013 21:22 14,2 C 11,7 C 92 % 1022,7 hPa 0,0 l/m 0 min 0 min 0,0 UV-I 0 W/m 0,0 km/h (0 Bft)
19.08.2013 21:24 14,2 C 11,7 C 92 % 1022,7 hPa 0,0 l/m 0 min 0 min 0,0 UV-I 0 W/m 0,0 km/h (0 Bft)
19.08.2013 21:26 14,2 C 11,7 C 92 % 1022,7 hPa 0,0 l/m 0 min 0 min 0,0 UV-I 0 W/m 0,0 km/h (0 Bft)
19.08.2013 21:28 14,1 C 11,7 C 92 % 1022,7 hPa 0,0 l/m 0 min 0 min 0,0 UV-I 0 W/m 0,0 km/h (0 Bft)
19.08.2013 21:30 14,0 C 11,7 C 92 % 1022,8 hPa 0,0 l/m 0 min 0 min 0,0 UV-I 0 W/m 0,0 km/h (0 Bft)
19.08.2013 21:32 14,0 C 11,7 C 92 % 1022,8 hPa 0,0 l/m 0 min 0 min 0,0 UV-I 0 W/m 0,0 km/h (0 Bft)
19.08.2013 21:34 14,0 C 11,7 C 92 % 1022,8 hPa 0,0 l/m 0 min 0 min 0,0 UV-I 0 W/m 0,0 km/h (0 Bft)
19.08.2013 21:36 13,9 C 11,7 C 92 % 1022,9 hPa 0,0 l/m 0 min 0 min 0,0 UV-I 0 W/m 0,0 km/h (0 Bft)
19.08.2013 21:38 13,9 C 11,7 C 92 % 1022,9 hPa 0,0 l/m 0 min 0 min 0,0 UV-I 0 W/m 0,0 km/h (0 Bft)
19.08.2013 21:40 13,9 C 11,7 C 92 % 1022,9 hPa 0,0 l/m 0 min 0 min 0,0 UV-I 0 W/m 0,0 km/h (0 Bft)
19.08.2013 21:42 13,9 C 11,7 C 92 % 1023,0 hPa 0,0 l/m 0 min 0 min 0,0 UV-I 0 W/m 0,0 km/h (0 Bft)
19.08.2013 21:44 13,9 C 11,7 C 92 % 1023,0 hPa 0,0 l/m 0 min 0 min 0,0 UV-I 0 W/m 0,0 km/h (0 Bft)
19.08.2013 21:46 13,9 C 11,7 C 92 % 1023,1 hPa 0,0 l/m 0 min 0 min 0,0 UV-I 0 W/m 0,0 km/h (0 Bft)
19.08.2013 21:48 13,9 C 11,7 C 92 % 1023,0 hPa 0,0 l/m 0 min 0 min 0,0 UV-I 0 W/m 0,0 km/h (0 Bft)
19.08.2013 21:50 13,8 C 11,7 C 92 % 1023,1 hPa 0,0 l/m 0 min 0 min 0,0 UV-I 0 W/m 0,0 km/h (0 Bft)
19.08.2013 21:52 13,9 C 11,7 C 92 % 1023,1 hPa 0,0 l/m 0 min 0 min 0,0 UV-I 0 W/m 0,0 km/h (0 Bft)
19.08.2013 21:54 13,9 C 11,7 C 92 % 1023,2 hPa 0,0 l/m 0 min 0 min 0,0 UV-I 0 W/m 0,0 km/h (0 Bft)
19.08.2013 21:56 13,8 C 11,7 C 92 % 1023,2 hPa 0,0 l/m 0 min 0 min 0,0 UV-I 0 W/m 0,0 km/h (0 Bft)
19.08.2013 21:58 13,8 C 11,7 C 92 % 1023,2 hPa 0,0 l/m 0 min 0 min 0,0 UV-I 0 W/m 0,0 km/h (0 Bft)
19.08.2013 22:00 13,8 C 11,7 C 93 % 1023,2 hPa 0,0 l/m 0 min 0 min 0,0 UV-I 0 W/m 0,0 km/h (0 Bft)
19.08.2013 22:02 13,8 C 11,7 C 93 % 1023,2 hPa 0,0 l/m 0 min 0 min 0,0 UV-I 0 W/m 0,0 km/h (0 Bft)
19.08.2013 22:06 13,8 C 11,7 C 93 % 1023,2 hPa 0,0 l/m 0 min 0 min 0,0 UV-I 0 W/m 0,0 km/h (0 Bft)
19.08.2013 22:08 13,7 C 11,7 C 93 % 1023,3 hPa 0,0 l/m 0 min 0 min 0,0 UV-I 0 W/m 0,0 km/h (0 Bft)
19.08.2013 22:10 13,7 C 11,7 C 93 % 1023,3 hPa 0,0 l/m 0 min 0 min 0,0 UV-I 0 W/m 0,0 km/h (0 Bft)
19.08.2013 22:12 13,7 C 11,7 C 93 % 1023,4 hPa 0,0 l/m 0 min 0 min 0,0 UV-I 0 W/m 0,0 km/h (0 Bft)
19.08.2013 22:14 13,7 C 11,7 C 93 % 1023,4 hPa 0,0 l/m 0 min 0 min 0,0 UV-I 0 W/m 0,0 km/h (0 Bft)
19.08.2013 22:16 13,6 C 11,7 C 93 % 1023,4 hPa 0,0 l/m 0 min 0 min 0,0 UV-I 0 W/m 0,0 km/h (0 Bft)
19.08.2013 22:18 13,6 C 11,7 C 93 % 1023,5 hPa 0,0 l/m 0 min 0 min 0,0 UV-I 0 W/m 0,0 km/h (0 Bft)
19.08.2013 22:20 13,6 C 11,7 C 93 % 1023,4 hPa 0,0 l/m 0 min 0 min 0,0 UV-I 0 W/m 0,0 km/h (0 Bft)
19.08.2013 22:22 13,6 C 11,7 C 93 % 1023,5 hPa 0,0 l/m 0 min 0 min 0,0 UV-I 0 W/m 0,0 km/h (0 Bft)
19.08.2013 22:24 13,6 C 11,7 C 93 % 1023,5 hPa 0,0 l/m 0 min 0 min 0,0 UV-I 0 W/m 0,0 km/h (0 Bft)
19.08.2013 22:26 13,6 C 11,7 C 93 % 1023,6 hPa 0,0 l/m 0 min 0 min 0,0 UV-I 0 W/m 0,0 km/h (0 Bft)
19.08.2013 22:28 13,6 C 11,7 C 93 % 1023,6 hPa 0,0 l/m 0 min 0 min 0,0 UV-I 0 W/m 0,0 km/h (0 Bft)
19.08.2013 22:30 13,6 C 11,7 C 93 % 1023,6 hPa 0,0 l/m 0 min 0 min 0,0 UV-I 0 W/m 0,0 km/h (0 Bft)
19.08.2013 22:32 13,5 C 11,7 C 93 % 1023,6 hPa 0,0 l/m 0 min 0 min 0,0 UV-I 0 W/m 0,0 km/h (0 Bft)
19.08.2013 22:34 13,5 C 11,1 C 93 % 1023,6 hPa 0,0 l/m 0 min 0 min 0,0 UV-I 0 W/m 0,0 km/h (0 Bft)
19.08.2013 22:36 13,4 C 11,1 C 93 % 1023,6 hPa 0,0 l/m 0 min 0 min 0,0 UV-I 0 W/m 0,0 km/h (0 Bft)
19.08.2013 22:38 13,4 C 11,1 C 93 % 1023,6 hPa 0,0 l/m 0 min 0 min 0,0 UV-I 0 W/m 0,0 km/h (0 Bft)
19.08.2013 22:40 13,3 C 11,1 C 93 % 1023,7 hPa 0,0 l/m 0 min 0 min 0,0 UV-I 0 W/m 0,0 km/h (0 Bft)
19.08.2013 22:42 13,3 C 11,1 C 93 % 1023,7 hPa 0,0 l/m 0 min 0 min 0,0 UV-I 0 W/m 0,0 km/h (0 Bft)
19.08.2013 22:44 13,3 C 11,1 C 93 % 1023,8 hPa 0,0 l/m 0 min 0 min 0,0 UV-I 0 W/m 0,0 km/h (0 Bft)
19.08.2013 22:46 13,2 C 11,1 C 94 % 1023,9 hPa 0,0 l/m 0 min 0 min 0,0 UV-I 0 W/m 0,0 km/h (0 Bft)
19.08.2013 22:48 13,2 C 11,1 C 94 % 1023,9 hPa 0,0 l/m 0 min 0 min 0,0 UV-I 0 W/m 0,0 km/h (0 Bft)
19.08.2013 22:50 13,1 C 11,1 C 94 % 1023,9 hPa 0,0 l/m 0 min 0 min 0,0 UV-I 0 W/m 0,0 km/h (0 Bft)
19.08.2013 22:52 13,1 C 11,1 C 94 % 1024,0 hPa 0,0 l/m 0 min 0 min 0,0 UV-I 0 W/m 0,0 km/h (0 Bft)
19.08.2013 22:54 13,1 C 11,1 C 94 % 1023,9 hPa 0,0 l/m 0 min 0 min 0,0 UV-I 0 W/m 0,0 km/h (0 Bft)
19.08.2013 22:56 12,9 C 10,6 C 94 % 1023,9 hPa 0,0 l/m 0 min 0 min 0,0 UV-I 0 W/m 0,0 km/h (0 Bft)
19.08.2013 22:58 12,9 C 10,6 C 94 % 1024,0 hPa 0,0 l/m 0 min 0 min 0,0 UV-I 0 W/m 0,0 km/h (0 Bft)
19.08.2013 23:00 12,8 C 10,6 C 94 % 1024,0 hPa 0,0 l/m 0 min 0 min 0,0 UV-I 0 W/m 0,0 km/h (0 Bft)
19.08.2013 23:02 12,9 C 10,6 C 94 % 1023,9 hPa 0,0 l/m 0 min 0 min 0,0 UV-I 0 W/m 0,0 km/h (0 Bft)
19.08.2013 23:06 12,8 C 11,1 C 95 % 1024,1 hPa 0,0 l/m 0 min 0 min 0,0 UV-I 0 W/m 0,0 km/h (0 Bft)
19.08.2013 23:08 12,8 C 10,6 C 95 % 1024,1 hPa 0,0 l/m 0 min 0 min 0,0 UV-I 0 W/m 0,0 km/h (0 Bft)
19.08.2013 23:10 12,7 C 10,6 C 95 % 1024,2 hPa 0,0 l/m 0 min 0 min 0,0 UV-I 0 W/m 0,0 km/h (0 Bft)
19.08.2013 23:12 12,7 C 10,6 C 95 % 1024,2 hPa 0,0 l/m 0 min 0 min 0,0 UV-I 0 W/m 0,0 km/h (0 Bft)
19.08.2013 23:14 12,7 C 10,6 C 95 % 1024,2 hPa 0,0 l/m 0 min 0 min 0,0 UV-I 0 W/m 0,0 km/h (0 Bft)
19.08.2013 23:16 12,6 C 10,6 C 95 % 1024,2 hPa 0,0 l/m 0 min 0 min 0,0 UV-I 0 W/m 0,0 km/h (0 Bft)
19.08.2013 23:18 12,6 C 10,6 C 95 % 1024,2 hPa 0,0 l/m 0 min 0 min 0,0 UV-I 0 W/m 0,0 km/h (0 Bft)
19.08.2013 23:20 12,6 C 10,6 C 95 % 1024,2 hPa 0,0 l/m 0 min 0 min 0,0 UV-I 0 W/m 0,0 km/h (0 Bft)
19.08.2013 23:22 12,6 C 10,6 C 96 % 1024,2 hPa 0,0 l/m 0 min 0 min 0,0 UV-I 0 W/m 0,0 km/h (0 Bft)
19.08.2013 23:24 12,6 C 10,6 C 96 % 1024,3 hPa 0,0 l/m 0 min 0 min 0,0 UV-I 0 W/m 0,0 km/h (0 Bft)
19.08.2013 23:26 12,5 C 10,6 C 96 % 1024,4 hPa 0,0 l/m 0 min 0 min 0,0 UV-I 0 W/m 0,0 km/h (0 Bft)
19.08.2013 23:28 12,5 C 10,6 C 96 % 1024,3 hPa 0,0 l/m 0 min 0 min 0,0 UV-I 0 W/m 0,0 km/h (0 Bft)
19.08.2013 23:30 12,5 C 10,6 C 96 % 1024,4 hPa 0,0 l/m 0 min 0 min 0,0 UV-I 0 W/m 0,0 km/h (0 Bft)
19.08.2013 23:32 12,4 C 10,6 C 96 % 1024,4 hPa 0,0 l/m 0 min 0 min 0,0 UV-I 0 W/m 0,0 km/h (0 Bft)
19.08.2013 23:34 12,4 C 10,6 C 96 % 1024,4 hPa 0,0 l/m 0 min 0 min 0,0 UV-I 0 W/m 0,0 km/h (0 Bft)
19.08.2013 23:36 12,4 C 10,6 C 96 % 1024,5 hPa 0,0 l/m 0 min 0 min 0,0 UV-I 0 W/m 0,0 km/h (0 Bft)
19.08.2013 23:38 12,3 C 10,6 C 96 % 1024,6 hPa 0,0 l/m 0 min 0 min 0,0 UV-I 0 W/m 0,0 km/h (0 Bft)
19.08.2013 23:40 12,3 C 10,6 C 96 % 1024,6 hPa 0,0 l/m 0 min 0 min 0,0 UV-I 0 W/m 0,0 km/h (0 Bft)
19.08.2013 23:42 12,3 C 10,6 C 96 % 1024,6 hPa 0,0 l/m 0 min 0 min 0,0 UV-I 0 W/m 0,0 km/h (0 Bft)
19.08.2013 23:44 12,3 C 10,6 C 96 % 1024,6 hPa 0,0 l/m 0 min 0 min 0,0 UV-I 0 W/m 0,0 km/h (0 Bft)
19.08.2013 23:46 12,3 C 10,6 C 96 % 1024,6 hPa 0,0 l/m 0 min 0 min 0,0 UV-I 0 W/m 0,0 km/h (0 Bft)
19.08.2013 23:48 12,3 C 10,6 C 96 % 1024,7 hPa 0,0 l/m 0 min 0 min 0,0 UV-I 0 W/m 0,0 km/h (0 Bft)
19.08.2013 23:50 12,2 C 10,6 C 96 % 1024,7 hPa 0,0 l/m 0 min 0 min 0,0 UV-I 0 W/m 0,0 km/h (0 Bft)
19.08.2013 23:52 12,2 C 10,6 C 97 % 1024,7 hPa 0,0 l/m 0 min 0 min 0,0 UV-I 0 W/m 0,0 km/h (0 Bft)
19.08.2013 23:54 12,2 C 10,6 C 97 % 1024,8 hPa 0,0 l/m 0 min 0 min 0,0 UV-I 0 W/m 0,0 km/h (0 Bft)
19.08.2013 23:56 12,2 C 10,6 C 97 % 1024,8 hPa 0,0 l/m 0 min 0 min 0,0 UV-I 0 W/m 0,0 km/h (0 Bft)
19.08.2013 23:58 12,1 C 10,6 C 97 % 1024,8 hPa 0,0 l/m 0 min 0 min 0,0 UV-I 0 W/m 0,0 km/h (0 Bft)
_ Min-Zeit 23:58 22:56 16:40 03:16 - - - - - 00:00
Minimum _ 12,1 C 10,6 C 76 % 1011,7 hPa - - - - - 0,0 km/h (0 Bft)
_ Max-Zeit 15:54 15:52 05:20 23:54 16:38 08:24 01:36 14:00 15:42 08:52
Maximum _ 20,0 C 19,4 C 99 % 1024,8 hPa 2,6 l/m 2 min 2 min 3,0 UV-I 733 W/m 33,5 km/h
W-SW (5 Bft)
Durchschnitt _ 16,4 C 14,9 C 93 % 1016,4 hPa #11,6 l/m #1:52 h #4:14 h 1,3 UV-I 174 W/m 3,1 km/h (1 Bft)
© 2013 W. Hausmann